<?xml version="1.0" encoding="UTF-8" standalone="no" ?>
<gpx xmlns="http://www.topografix.com/GPX/1/1" xmlns:xsi="http://www.w3.org/2001/XMLSchema-instance" xsi:schemaLocation="http://www.topografix.com/GPX/1/1 http://www.topografix.com/GPX/1/1/gpx.xsd" version="1.1" creator="VisuGPX - https://www.visugpx.com">
  <metadata>
    <name>2021-03-01 12:39:07 Jour</name>
  </metadata>
  <trk>
    <name><![CDATA[2021-03-01 12:39:07 Jour]]></name>
    <trkseg>
      <trkpt lat="49.27998" lon="0.17922">
        <ele>-44.56</ele>
        <time>2021-03-01T11:39:07Z</time>
      </trkpt>
      <trkpt lat="49.27995" lon="0.17926">
        <ele>-45.04</ele>
        <time>2021-03-01T11:39:10Z</time>
      </trkpt>
      <trkpt lat="49.27976" lon="0.17925">
        <ele>-44.56</ele>
        <time>2021-03-01T11:39:26Z</time>
      </trkpt>
      <trkpt lat="49.27968" lon="0.17958">
        <ele>-44.56</ele>
        <time>2021-03-01T11:39:44Z</time>
      </trkpt>
      <trkpt lat="49.27945" lon="0.17947">
        <ele>-44.56</ele>
        <time>2021-03-01T11:40:04Z</time>
      </trkpt>
      <trkpt lat="49.2792" lon="0.17941">
        <ele>-43.6</ele>
        <time>2021-03-01T11:40:25Z</time>
      </trkpt>
      <trkpt lat="49.27895" lon="0.17938">
        <ele>-43.12</ele>
        <time>2021-03-01T11:40:45Z</time>
      </trkpt>
      <trkpt lat="49.27875" lon="0.17934">
        <ele>-42.16</ele>
        <time>2021-03-01T11:41:02Z</time>
      </trkpt>
      <trkpt lat="49.27852" lon="0.1793">
        <ele>-40.72</ele>
        <time>2021-03-01T11:41:21Z</time>
      </trkpt>
      <trkpt lat="49.27828" lon="0.17929">
        <ele>-40.72</ele>
        <time>2021-03-01T11:41:41Z</time>
      </trkpt>
      <trkpt lat="49.2783" lon="0.1796">
        <ele>-40.72</ele>
        <time>2021-03-01T11:41:59Z</time>
      </trkpt>
      <trkpt lat="49.27829" lon="0.17992">
        <ele>-41.2</ele>
        <time>2021-03-01T11:42:18Z</time>
      </trkpt>
      <trkpt lat="49.27825" lon="0.18031">
        <ele>-41.68</ele>
        <time>2021-03-01T11:42:40Z</time>
      </trkpt>
      <trkpt lat="49.27823" lon="0.18058">
        <ele>-41.68</ele>
        <time>2021-03-01T11:42:57Z</time>
      </trkpt>
      <trkpt lat="49.2782" lon="0.18089">
        <ele>-41.68</ele>
        <time>2021-03-01T11:43:14Z</time>
      </trkpt>
      <trkpt lat="49.27817" lon="0.18126">
        <ele>-41.68</ele>
        <time>2021-03-01T11:43:33Z</time>
      </trkpt>
      <trkpt lat="49.27817" lon="0.1816">
        <ele>-42.16</ele>
        <time>2021-03-01T11:43:52Z</time>
      </trkpt>
      <trkpt lat="49.27822" lon="0.18192">
        <ele>-43.12</ele>
        <time>2021-03-01T11:44:11Z</time>
      </trkpt>
      <trkpt lat="49.27829" lon="0.18223">
        <ele>-44.08</ele>
        <time>2021-03-01T11:44:30Z</time>
      </trkpt>
      <trkpt lat="49.27837" lon="0.18263">
        <ele>-44.56</ele>
        <time>2021-03-01T11:44:50Z</time>
      </trkpt>
      <trkpt lat="49.27849" lon="0.18298">
        <ele>-46.49</ele>
        <time>2021-03-01T11:45:11Z</time>
      </trkpt>
      <trkpt lat="49.27867" lon="0.18323">
        <ele>-47.45</ele>
        <time>2021-03-01T11:45:33Z</time>
      </trkpt>
      <trkpt lat="49.2789" lon="0.18338">
        <ele>-47.45</ele>
        <time>2021-03-01T11:45:54Z</time>
      </trkpt>
      <trkpt lat="49.27901" lon="0.18354">
        <ele>-48.41</ele>
        <time>2021-03-01T11:46:07Z</time>
      </trkpt>
      <trkpt lat="49.27887" lon="0.18367">
        <ele>-49.85</ele>
        <time>2021-03-01T11:46:21Z</time>
      </trkpt>
      <trkpt lat="49.27867" lon="0.18386">
        <ele>-49.85</ele>
        <time>2021-03-01T11:46:38Z</time>
      </trkpt>
      <trkpt lat="49.27854" lon="0.18408">
        <ele>-49.85</ele>
        <time>2021-03-01T11:46:55Z</time>
      </trkpt>
      <trkpt lat="49.27846" lon="0.1843">
        <ele>-49.85</ele>
        <time>2021-03-01T11:47:12Z</time>
      </trkpt>
      <trkpt lat="49.27842" lon="0.18457">
        <ele>-49.37</ele>
        <time>2021-03-01T11:47:29Z</time>
      </trkpt>
      <trkpt lat="49.27842" lon="0.18487">
        <ele>-48.89</ele>
        <time>2021-03-01T11:47:45Z</time>
      </trkpt>
      <trkpt lat="49.27843" lon="0.18516">
        <ele>-48.89</ele>
        <time>2021-03-01T11:48:00Z</time>
      </trkpt>
      <trkpt lat="49.2784" lon="0.18538">
        <ele>-48.41</ele>
        <time>2021-03-01T11:48:15Z</time>
      </trkpt>
      <trkpt lat="49.27839" lon="0.1854">
        <ele>-47.93</ele>
        <time>2021-03-01T11:48:17Z</time>
      </trkpt>
      <trkpt lat="49.27836" lon="0.18545">
        <ele>-46.97</ele>
        <time>2021-03-01T11:48:22Z</time>
      </trkpt>
      <trkpt lat="49.27825" lon="0.18562">
        <ele>-47.93</ele>
        <time>2021-03-01T11:48:38Z</time>
      </trkpt>
      <trkpt lat="49.27813" lon="0.18587">
        <ele>-47.45</ele>
        <time>2021-03-01T11:48:55Z</time>
      </trkpt>
      <trkpt lat="49.27801" lon="0.18615">
        <ele>-46.97</ele>
        <time>2021-03-01T11:49:14Z</time>
      </trkpt>
      <trkpt lat="49.27786" lon="0.18641">
        <ele>-46.01</ele>
        <time>2021-03-01T11:49:32Z</time>
      </trkpt>
      <trkpt lat="49.27773" lon="0.18657">
        <ele>-46.01</ele>
        <time>2021-03-01T11:49:46Z</time>
      </trkpt>
      <trkpt lat="49.27761" lon="0.18668">
        <ele>-44.56</ele>
        <time>2021-03-01T11:49:57Z</time>
      </trkpt>
      <trkpt lat="49.27737" lon="0.18688">
        <ele>-43.6</ele>
        <time>2021-03-01T11:50:19Z</time>
      </trkpt>
      <trkpt lat="49.27717" lon="0.1871">
        <ele>-42.64</ele>
        <time>2021-03-01T11:50:41Z</time>
      </trkpt>
      <trkpt lat="49.27705" lon="0.18737">
        <ele>-41.68</ele>
        <time>2021-03-01T11:51:00Z</time>
      </trkpt>
      <trkpt lat="49.27697" lon="0.18769">
        <ele>-40.72</ele>
        <time>2021-03-01T11:51:19Z</time>
      </trkpt>
      <trkpt lat="49.27692" lon="0.18791">
        <ele>-39.28</ele>
        <time>2021-03-01T11:51:33Z</time>
      </trkpt>
      <trkpt lat="49.27686" lon="0.18817">
        <ele>-38.32</ele>
        <time>2021-03-01T11:51:49Z</time>
      </trkpt>
      <trkpt lat="49.2768" lon="0.18835">
        <ele>-36.87</ele>
        <time>2021-03-01T11:52:01Z</time>
      </trkpt>
      <trkpt lat="49.2767" lon="0.18866">
        <ele>-35.91</ele>
        <time>2021-03-01T11:52:20Z</time>
      </trkpt>
      <trkpt lat="49.27666" lon="0.18873">
        <ele>-35.91</ele>
        <time>2021-03-01T11:52:25Z</time>
      </trkpt>
      <trkpt lat="49.27665" lon="0.18879">
        <ele>-35.91</ele>
        <time>2021-03-01T11:52:29Z</time>
      </trkpt>
      <trkpt lat="49.27662" lon="0.18885">
        <ele>-35.43</ele>
        <time>2021-03-01T11:52:33Z</time>
      </trkpt>
      <trkpt lat="49.27659" lon="0.18899">
        <ele>-34.47</ele>
        <time>2021-03-01T11:52:44Z</time>
      </trkpt>
      <trkpt lat="49.27659" lon="0.18911">
        <ele>-33.99</ele>
        <time>2021-03-01T11:52:53Z</time>
      </trkpt>
      <trkpt lat="49.2764" lon="0.18927">
        <ele>-33.03</ele>
        <time>2021-03-01T11:53:11Z</time>
      </trkpt>
      <trkpt lat="49.2762" lon="0.18948">
        <ele>-32.07</ele>
        <time>2021-03-01T11:53:32Z</time>
      </trkpt>
      <trkpt lat="49.276" lon="0.18974">
        <ele>-31.59</ele>
        <time>2021-03-01T11:53:54Z</time>
      </trkpt>
      <trkpt lat="49.27583" lon="0.18996">
        <ele>-32.07</ele>
        <time>2021-03-01T11:54:12Z</time>
      </trkpt>
      <trkpt lat="49.27564" lon="0.1902">
        <ele>-32.55</ele>
        <time>2021-03-01T11:54:32Z</time>
      </trkpt>
      <trkpt lat="49.2756" lon="0.19025">
        <ele>-33.03</ele>
        <time>2021-03-01T11:54:44Z</time>
      </trkpt>
      <trkpt lat="49.27542" lon="0.19047">
        <ele>-33.51</ele>
        <time>2021-03-01T11:55:02Z</time>
      </trkpt>
      <trkpt lat="49.27531" lon="0.19063">
        <ele>-33.51</ele>
        <time>2021-03-01T11:55:19Z</time>
      </trkpt>
      <trkpt lat="49.27514" lon="0.19084">
        <ele>-33.03</ele>
        <time>2021-03-01T11:55:37Z</time>
      </trkpt>
      <trkpt lat="49.27508" lon="0.19094">
        <ele>-33.51</ele>
        <time>2021-03-01T11:55:45Z</time>
      </trkpt>
      <trkpt lat="49.27499" lon="0.19111">
        <ele>-33.03</ele>
        <time>2021-03-01T11:56:04Z</time>
      </trkpt>
      <trkpt lat="49.27488" lon="0.19118">
        <ele>-33.51</ele>
        <time>2021-03-01T11:56:12Z</time>
      </trkpt>
      <trkpt lat="49.27479" lon="0.19129">
        <ele>-33.51</ele>
        <time>2021-03-01T11:56:21Z</time>
      </trkpt>
      <trkpt lat="49.27459" lon="0.19133">
        <ele>-33.51</ele>
        <time>2021-03-01T11:56:38Z</time>
      </trkpt>
      <trkpt lat="49.27436" lon="0.19126">
        <ele>-33.03</ele>
        <time>2021-03-01T11:56:57Z</time>
      </trkpt>
      <trkpt lat="49.27434" lon="0.19125">
        <ele>-31.59</ele>
        <time>2021-03-01T11:56:59Z</time>
      </trkpt>
      <trkpt lat="49.27418" lon="0.19097">
        <ele>-30.62</ele>
        <time>2021-03-01T11:57:20Z</time>
      </trkpt>
      <trkpt lat="49.27409" lon="0.19073">
        <ele>-28.7</ele>
        <time>2021-03-01T11:57:39Z</time>
      </trkpt>
      <trkpt lat="49.27407" lon="0.19069">
        <ele>-27.74</ele>
        <time>2021-03-01T11:57:52Z</time>
      </trkpt>
      <trkpt lat="49.27394" lon="0.19038">
        <ele>-25.82</ele>
        <time>2021-03-01T11:58:13Z</time>
      </trkpt>
      <trkpt lat="49.27388" lon="0.19023">
        <ele>-25.34</ele>
        <time>2021-03-01T11:58:26Z</time>
      </trkpt>
      <trkpt lat="49.27382" lon="0.19008">
        <ele>-23.9</ele>
        <time>2021-03-01T11:58:41Z</time>
      </trkpt>
      <trkpt lat="49.27377" lon="0.18994">
        <ele>-23.41</ele>
        <time>2021-03-01T11:58:53Z</time>
      </trkpt>
      <trkpt lat="49.27366" lon="0.1897">
        <ele>-21.49</ele>
        <time>2021-03-01T11:59:12Z</time>
      </trkpt>
      <trkpt lat="49.27359" lon="0.18955">
        <ele>-20.05</ele>
        <time>2021-03-01T11:59:29Z</time>
      </trkpt>
      <trkpt lat="49.27354" lon="0.18942">
        <ele>-19.57</ele>
        <time>2021-03-01T11:59:45Z</time>
      </trkpt>
      <trkpt lat="49.27347" lon="0.18925">
        <ele>-18.13</ele>
        <time>2021-03-01T11:59:59Z</time>
      </trkpt>
      <trkpt lat="49.2734" lon="0.18907">
        <ele>-17.17</ele>
        <time>2021-03-01T12:00:13Z</time>
      </trkpt>
      <trkpt lat="49.27335" lon="0.18894">
        <ele>-16.69</ele>
        <time>2021-03-01T12:00:26Z</time>
      </trkpt>
      <trkpt lat="49.2732" lon="0.18859">
        <ele>-14.28</ele>
        <time>2021-03-01T12:00:49Z</time>
      </trkpt>
      <trkpt lat="49.27306" lon="0.18825">
        <ele>-12.84</ele>
        <time>2021-03-01T12:01:12Z</time>
      </trkpt>
      <trkpt lat="49.27291" lon="0.1879">
        <ele>-11.88</ele>
        <time>2021-03-01T12:01:36Z</time>
      </trkpt>
      <trkpt lat="49.27283" lon="0.18769">
        <ele>-10.44</ele>
        <time>2021-03-01T12:01:50Z</time>
      </trkpt>
      <trkpt lat="49.27281" lon="0.18765">
        <ele>-9.96</ele>
        <time>2021-03-01T12:02:01Z</time>
      </trkpt>
      <trkpt lat="49.27273" lon="0.18746">
        <ele>-9</ele>
        <time>2021-03-01T12:02:16Z</time>
      </trkpt>
      <trkpt lat="49.2726" lon="0.18714">
        <ele>-8.03</ele>
        <time>2021-03-01T12:02:38Z</time>
      </trkpt>
      <trkpt lat="49.27258" lon="0.1871">
        <ele>-7.55</ele>
        <time>2021-03-01T12:02:51Z</time>
      </trkpt>
      <trkpt lat="49.2725" lon="0.18694">
        <ele>-7.55</ele>
        <time>2021-03-01T12:03:07Z</time>
      </trkpt>
      <trkpt lat="49.27247" lon="0.18681">
        <ele>-7.07</ele>
        <time>2021-03-01T12:03:24Z</time>
      </trkpt>
      <trkpt lat="49.27235" lon="0.18654">
        <ele>-6.11</ele>
        <time>2021-03-01T12:03:42Z</time>
      </trkpt>
      <trkpt lat="49.27227" lon="0.18637">
        <ele>-5.63</ele>
        <time>2021-03-01T12:03:57Z</time>
      </trkpt>
      <trkpt lat="49.27217" lon="0.18616">
        <ele>-4.67</ele>
        <time>2021-03-01T12:04:12Z</time>
      </trkpt>
      <trkpt lat="49.27206" lon="0.18599">
        <ele>-4.19</ele>
        <time>2021-03-01T12:04:28Z</time>
      </trkpt>
      <trkpt lat="49.27196" lon="0.18586">
        <ele>-4.19</ele>
        <time>2021-03-01T12:04:45Z</time>
      </trkpt>
      <trkpt lat="49.27193" lon="0.18583">
        <ele>-3.23</ele>
        <time>2021-03-01T12:04:48Z</time>
      </trkpt>
      <trkpt lat="49.27176" lon="0.18565">
        <ele>-1.3</ele>
        <time>2021-03-01T12:05:06Z</time>
      </trkpt>
      <trkpt lat="49.27173" lon="0.18563">
        <ele>-1.3</ele>
        <time>2021-03-01T12:05:16Z</time>
      </trkpt>
      <trkpt lat="49.2717" lon="0.18561">
        <ele>-1.3</ele>
        <time>2021-03-01T12:05:19Z</time>
      </trkpt>
      <trkpt lat="49.27161" lon="0.18552">
        <ele>-0.34</ele>
        <time>2021-03-01T12:05:33Z</time>
      </trkpt>
      <trkpt lat="49.27153" lon="0.18546">
        <ele>0.62</ele>
        <time>2021-03-01T12:05:44Z</time>
      </trkpt>
      <trkpt lat="49.27135" lon="0.1853">
        <ele>2.06</ele>
        <time>2021-03-01T12:06:03Z</time>
      </trkpt>
      <trkpt lat="49.27126" lon="0.18522">
        <ele>3.5</ele>
        <time>2021-03-01T12:06:20Z</time>
      </trkpt>
      <trkpt lat="49.2711" lon="0.18505">
        <ele>4.94</ele>
        <time>2021-03-01T12:06:38Z</time>
      </trkpt>
      <trkpt lat="49.27099" lon="0.18493">
        <ele>5.91</ele>
        <time>2021-03-01T12:06:54Z</time>
      </trkpt>
      <trkpt lat="49.27087" lon="0.18474">
        <ele>7.83</ele>
        <time>2021-03-01T12:07:10Z</time>
      </trkpt>
      <trkpt lat="49.27073" lon="0.18447">
        <ele>8.79</ele>
        <time>2021-03-01T12:07:29Z</time>
      </trkpt>
      <trkpt lat="49.27059" lon="0.18422">
        <ele>10.23</ele>
        <time>2021-03-01T12:07:47Z</time>
      </trkpt>
      <trkpt lat="49.27056" lon="0.18423">
        <ele>10.71</ele>
        <time>2021-03-01T12:07:51Z</time>
      </trkpt>
      <trkpt lat="49.27058" lon="0.18432">
        <ele>12.15</ele>
        <time>2021-03-01T12:08:09Z</time>
      </trkpt>
      <trkpt lat="49.27056" lon="0.18428">
        <ele>12.15</ele>
        <time>2021-03-01T12:08:17Z</time>
      </trkpt>
      <trkpt lat="49.27045" lon="0.18403">
        <ele>12.63</ele>
        <time>2021-03-01T12:08:36Z</time>
      </trkpt>
      <trkpt lat="49.27041" lon="0.18398">
        <ele>12.63</ele>
        <time>2021-03-01T12:08:47Z</time>
      </trkpt>
      <trkpt lat="49.27028" lon="0.18384">
        <ele>14.08</ele>
        <time>2021-03-01T12:09:05Z</time>
      </trkpt>
      <trkpt lat="49.27017" lon="0.18371">
        <ele>16</ele>
        <time>2021-03-01T12:09:22Z</time>
      </trkpt>
      <trkpt lat="49.27007" lon="0.18362">
        <ele>16</ele>
        <time>2021-03-01T12:09:38Z</time>
      </trkpt>
      <trkpt lat="49.27002" lon="0.18355">
        <ele>17.44</ele>
        <time>2021-03-01T12:09:55Z</time>
      </trkpt>
      <trkpt lat="49.26995" lon="0.18344">
        <ele>17.92</ele>
        <time>2021-03-01T12:10:08Z</time>
      </trkpt>
      <trkpt lat="49.26995" lon="0.18343">
        <ele>17.92</ele>
        <time>2021-03-01T12:10:09Z</time>
      </trkpt>
      <trkpt lat="49.26979" lon="0.18327">
        <ele>19.36</ele>
        <time>2021-03-01T12:10:27Z</time>
      </trkpt>
      <trkpt lat="49.26972" lon="0.18325">
        <ele>19.84</ele>
        <time>2021-03-01T12:10:43Z</time>
      </trkpt>
      <trkpt lat="49.26964" lon="0.18323">
        <ele>21.29</ele>
        <time>2021-03-01T12:10:58Z</time>
      </trkpt>
      <trkpt lat="49.26953" lon="0.1832">
        <ele>24.17</ele>
        <time>2021-03-01T12:11:15Z</time>
      </trkpt>
      <trkpt lat="49.26941" lon="0.1832">
        <ele>25.61</ele>
        <time>2021-03-01T12:11:31Z</time>
      </trkpt>
      <trkpt lat="49.26931" lon="0.18322">
        <ele>26.09</ele>
        <time>2021-03-01T12:11:46Z</time>
      </trkpt>
      <trkpt lat="49.26922" lon="0.18326">
        <ele>28.02</ele>
        <time>2021-03-01T12:12:00Z</time>
      </trkpt>
      <trkpt lat="49.26911" lon="0.18327">
        <ele>29.46</ele>
        <time>2021-03-01T12:12:17Z</time>
      </trkpt>
      <trkpt lat="49.26904" lon="0.18326">
        <ele>30.9</ele>
        <time>2021-03-01T12:12:32Z</time>
      </trkpt>
      <trkpt lat="49.26893" lon="0.18318">
        <ele>31.86</ele>
        <time>2021-03-01T12:12:48Z</time>
      </trkpt>
      <trkpt lat="49.2688" lon="0.18313">
        <ele>33.78</ele>
        <time>2021-03-01T12:13:05Z</time>
      </trkpt>
      <trkpt lat="49.26869" lon="0.1831">
        <ele>34.74</ele>
        <time>2021-03-01T12:13:17Z</time>
      </trkpt>
      <trkpt lat="49.26856" lon="0.18308">
        <ele>37.15</ele>
        <time>2021-03-01T12:13:35Z</time>
      </trkpt>
      <trkpt lat="49.26843" lon="0.18308">
        <ele>39.07</ele>
        <time>2021-03-01T12:13:51Z</time>
      </trkpt>
      <trkpt lat="49.26837" lon="0.18319">
        <ele>40.03</ele>
        <time>2021-03-01T12:14:05Z</time>
      </trkpt>
      <trkpt lat="49.26831" lon="0.18338">
        <ele>42.44</ele>
        <time>2021-03-01T12:14:28Z</time>
      </trkpt>
      <trkpt lat="49.26828" lon="0.18351">
        <ele>44.36</ele>
        <time>2021-03-01T12:14:43Z</time>
      </trkpt>
      <trkpt lat="49.26823" lon="0.18366">
        <ele>45.32</ele>
        <time>2021-03-01T12:14:59Z</time>
      </trkpt>
      <trkpt lat="49.26818" lon="0.18376">
        <ele>46.76</ele>
        <time>2021-03-01T12:15:13Z</time>
      </trkpt>
      <trkpt lat="49.26811" lon="0.18385">
        <ele>47.72</ele>
        <time>2021-03-01T12:15:30Z</time>
      </trkpt>
      <trkpt lat="49.26808" lon="0.1839">
        <ele>48.68</ele>
        <time>2021-03-01T12:15:51Z</time>
      </trkpt>
      <trkpt lat="49.26801" lon="0.184">
        <ele>50.61</ele>
        <time>2021-03-01T12:16:06Z</time>
      </trkpt>
      <trkpt lat="49.26795" lon="0.18412">
        <ele>52.05</ele>
        <time>2021-03-01T12:16:24Z</time>
      </trkpt>
      <trkpt lat="49.26791" lon="0.18427">
        <ele>53.97</ele>
        <time>2021-03-01T12:16:40Z</time>
      </trkpt>
      <trkpt lat="49.26786" lon="0.18438">
        <ele>55.41</ele>
        <time>2021-03-01T12:16:55Z</time>
      </trkpt>
      <trkpt lat="49.26781" lon="0.18453">
        <ele>57.82</ele>
        <time>2021-03-01T12:17:11Z</time>
      </trkpt>
      <trkpt lat="49.26774" lon="0.18468">
        <ele>59.74</ele>
        <time>2021-03-01T12:17:30Z</time>
      </trkpt>
      <trkpt lat="49.26767" lon="0.18478">
        <ele>61.66</ele>
        <time>2021-03-01T12:17:49Z</time>
      </trkpt>
      <trkpt lat="49.26759" lon="0.18485">
        <ele>63.58</ele>
        <time>2021-03-01T12:18:05Z</time>
      </trkpt>
      <trkpt lat="49.26749" lon="0.18498">
        <ele>65.51</ele>
        <time>2021-03-01T12:18:22Z</time>
      </trkpt>
      <trkpt lat="49.26745" lon="0.18506">
        <ele>67.43</ele>
        <time>2021-03-01T12:18:38Z</time>
      </trkpt>
      <trkpt lat="49.26739" lon="0.18516">
        <ele>68.87</ele>
        <time>2021-03-01T12:18:52Z</time>
      </trkpt>
      <trkpt lat="49.2673" lon="0.18522">
        <ele>69.83</ele>
        <time>2021-03-01T12:19:07Z</time>
      </trkpt>
      <trkpt lat="49.26723" lon="0.18534">
        <ele>71.27</ele>
        <time>2021-03-01T12:19:21Z</time>
      </trkpt>
      <trkpt lat="49.26715" lon="0.1854">
        <ele>73.2</ele>
        <time>2021-03-01T12:19:36Z</time>
      </trkpt>
      <trkpt lat="49.26709" lon="0.18552">
        <ele>75.6</ele>
        <time>2021-03-01T12:19:53Z</time>
      </trkpt>
      <trkpt lat="49.26704" lon="0.18565">
        <ele>77.04</ele>
        <time>2021-03-01T12:20:09Z</time>
      </trkpt>
      <trkpt lat="49.267" lon="0.1858">
        <ele>78.97</ele>
        <time>2021-03-01T12:20:26Z</time>
      </trkpt>
      <trkpt lat="49.26696" lon="0.18597">
        <ele>80.89</ele>
        <time>2021-03-01T12:20:44Z</time>
      </trkpt>
      <trkpt lat="49.2669" lon="0.18611">
        <ele>82.33</ele>
        <time>2021-03-01T12:21:01Z</time>
      </trkpt>
      <trkpt lat="49.26683" lon="0.18627">
        <ele>84.25</ele>
        <time>2021-03-01T12:21:19Z</time>
      </trkpt>
      <trkpt lat="49.26676" lon="0.18641">
        <ele>85.69</ele>
        <time>2021-03-01T12:21:35Z</time>
      </trkpt>
      <trkpt lat="49.26673" lon="0.18657">
        <ele>87.14</ele>
        <time>2021-03-01T12:21:51Z</time>
      </trkpt>
      <trkpt lat="49.26664" lon="0.18664">
        <ele>88.1</ele>
        <time>2021-03-01T12:22:07Z</time>
      </trkpt>
      <trkpt lat="49.26656" lon="0.18668">
        <ele>90.02</ele>
        <time>2021-03-01T12:22:23Z</time>
      </trkpt>
      <trkpt lat="49.26645" lon="0.1867">
        <ele>91.94</ele>
        <time>2021-03-01T12:22:40Z</time>
      </trkpt>
      <trkpt lat="49.26635" lon="0.18673">
        <ele>92.9</ele>
        <time>2021-03-01T12:22:53Z</time>
      </trkpt>
      <trkpt lat="49.26623" lon="0.18674">
        <ele>94.35</ele>
        <time>2021-03-01T12:23:08Z</time>
      </trkpt>
      <trkpt lat="49.2661" lon="0.18675">
        <ele>95.79</ele>
        <time>2021-03-01T12:23:23Z</time>
      </trkpt>
      <trkpt lat="49.26597" lon="0.18683">
        <ele>96.75</ele>
        <time>2021-03-01T12:23:38Z</time>
      </trkpt>
      <trkpt lat="49.26592" lon="0.18679">
        <ele>97.23</ele>
        <time>2021-03-01T12:23:51Z</time>
      </trkpt>
      <trkpt lat="49.26575" lon="0.18666">
        <ele>97.71</ele>
        <time>2021-03-01T12:24:06Z</time>
      </trkpt>
      <trkpt lat="49.26556" lon="0.18656">
        <ele>98.19</ele>
        <time>2021-03-01T12:24:23Z</time>
      </trkpt>
      <trkpt lat="49.26542" lon="0.18645">
        <ele>98.19</ele>
        <time>2021-03-01T12:24:39Z</time>
      </trkpt>
      <trkpt lat="49.26529" lon="0.18631">
        <ele>98.19</ele>
        <time>2021-03-01T12:24:56Z</time>
      </trkpt>
      <trkpt lat="49.26526" lon="0.18622">
        <ele>96.75</ele>
        <time>2021-03-01T12:25:03Z</time>
      </trkpt>
      <trkpt lat="49.26518" lon="0.18607">
        <ele>96.75</ele>
        <time>2021-03-01T12:25:18Z</time>
      </trkpt>
      <trkpt lat="49.2651" lon="0.18593">
        <ele>96.75</ele>
        <time>2021-03-01T12:25:29Z</time>
      </trkpt>
      <trkpt lat="49.26505" lon="0.18585">
        <ele>96.75</ele>
        <time>2021-03-01T12:25:34Z</time>
      </trkpt>
      <trkpt lat="49.26494" lon="0.18567">
        <ele>96.75</ele>
        <time>2021-03-01T12:25:49Z</time>
      </trkpt>
      <trkpt lat="49.26479" lon="0.18547">
        <ele>96.27</ele>
        <time>2021-03-01T12:26:06Z</time>
      </trkpt>
      <trkpt lat="49.26465" lon="0.18527">
        <ele>95.31</ele>
        <time>2021-03-01T12:26:23Z</time>
      </trkpt>
      <trkpt lat="49.26453" lon="0.1851">
        <ele>93.87</ele>
        <time>2021-03-01T12:26:38Z</time>
      </trkpt>
      <trkpt lat="49.26444" lon="0.18495">
        <ele>92.42</ele>
        <time>2021-03-01T12:26:53Z</time>
      </trkpt>
      <trkpt lat="49.26431" lon="0.18482">
        <ele>89.06</ele>
        <time>2021-03-01T12:27:08Z</time>
      </trkpt>
      <trkpt lat="49.26424" lon="0.18472">
        <ele>87.62</ele>
        <time>2021-03-01T12:27:23Z</time>
      </trkpt>
      <trkpt lat="49.26408" lon="0.18462">
        <ele>85.21</ele>
        <time>2021-03-01T12:27:40Z</time>
      </trkpt>
      <trkpt lat="49.26395" lon="0.18455">
        <ele>82.33</ele>
        <time>2021-03-01T12:27:54Z</time>
      </trkpt>
      <trkpt lat="49.26385" lon="0.18444">
        <ele>80.41</ele>
        <time>2021-03-01T12:28:09Z</time>
      </trkpt>
      <trkpt lat="49.26373" lon="0.1843">
        <ele>78.48</ele>
        <time>2021-03-01T12:28:25Z</time>
      </trkpt>
      <trkpt lat="49.26364" lon="0.18416">
        <ele>76.56</ele>
        <time>2021-03-01T12:28:40Z</time>
      </trkpt>
      <trkpt lat="49.26358" lon="0.184">
        <ele>74.64</ele>
        <time>2021-03-01T12:28:54Z</time>
      </trkpt>
      <trkpt lat="49.26353" lon="0.18388">
        <ele>73.2</ele>
        <time>2021-03-01T12:29:10Z</time>
      </trkpt>
      <trkpt lat="49.26347" lon="0.18373">
        <ele>72.72</ele>
        <time>2021-03-01T12:29:24Z</time>
      </trkpt>
      <trkpt lat="49.26341" lon="0.18359">
        <ele>72.72</ele>
        <time>2021-03-01T12:29:36Z</time>
      </trkpt>
      <trkpt lat="49.26335" lon="0.18337">
        <ele>71.27</ele>
        <time>2021-03-01T12:29:51Z</time>
      </trkpt>
      <trkpt lat="49.2633" lon="0.18317">
        <ele>70.31</ele>
        <time>2021-03-01T12:30:04Z</time>
      </trkpt>
      <trkpt lat="49.26323" lon="0.18296">
        <ele>69.35</ele>
        <time>2021-03-01T12:30:18Z</time>
      </trkpt>
      <trkpt lat="49.26316" lon="0.18278">
        <ele>69.35</ele>
        <time>2021-03-01T12:30:34Z</time>
      </trkpt>
      <trkpt lat="49.26311" lon="0.18257">
        <ele>67.91</ele>
        <time>2021-03-01T12:30:48Z</time>
      </trkpt>
      <trkpt lat="49.26311" lon="0.18235">
        <ele>65.51</ele>
        <time>2021-03-01T12:31:05Z</time>
      </trkpt>
      <trkpt lat="49.26314" lon="0.18208">
        <ele>63.1</ele>
        <time>2021-03-01T12:31:21Z</time>
      </trkpt>
      <trkpt lat="49.26317" lon="0.18191">
        <ele>61.66</ele>
        <time>2021-03-01T12:31:33Z</time>
      </trkpt>
      <trkpt lat="49.26322" lon="0.18169">
        <ele>59.74</ele>
        <time>2021-03-01T12:31:49Z</time>
      </trkpt>
      <trkpt lat="49.26323" lon="0.18155">
        <ele>58.3</ele>
        <time>2021-03-01T12:32:01Z</time>
      </trkpt>
      <trkpt lat="49.26325" lon="0.18135">
        <ele>57.34</ele>
        <time>2021-03-01T12:32:15Z</time>
      </trkpt>
      <trkpt lat="49.26329" lon="0.18111">
        <ele>55.41</ele>
        <time>2021-03-01T12:32:31Z</time>
      </trkpt>
      <trkpt lat="49.26331" lon="0.18104">
        <ele>54.93</ele>
        <time>2021-03-01T12:32:35Z</time>
      </trkpt>
      <trkpt lat="49.26332" lon="0.18098">
        <ele>53.97</ele>
        <time>2021-03-01T12:32:39Z</time>
      </trkpt>
      <trkpt lat="49.26327" lon="0.18084">
        <ele>54.93</ele>
        <time>2021-03-01T12:32:52Z</time>
      </trkpt>
      <trkpt lat="49.26318" lon="0.18071">
        <ele>56.86</ele>
        <time>2021-03-01T12:33:08Z</time>
      </trkpt>
      <trkpt lat="49.26312" lon="0.18062">
        <ele>58.78</ele>
        <time>2021-03-01T12:33:23Z</time>
      </trkpt>
      <trkpt lat="49.26307" lon="0.18051">
        <ele>60.7</ele>
        <time>2021-03-01T12:33:38Z</time>
      </trkpt>
      <trkpt lat="49.263" lon="0.18037">
        <ele>62.62</ele>
        <time>2021-03-01T12:33:54Z</time>
      </trkpt>
      <trkpt lat="49.26294" lon="0.1802">
        <ele>65.03</ele>
        <time>2021-03-01T12:34:08Z</time>
      </trkpt>
      <trkpt lat="49.26287" lon="0.18006">
        <ele>66.47</ele>
        <time>2021-03-01T12:34:23Z</time>
      </trkpt>
      <trkpt lat="49.26281" lon="0.18">
        <ele>67.91</ele>
        <time>2021-03-01T12:34:39Z</time>
      </trkpt>
      <trkpt lat="49.26269" lon="0.17992">
        <ele>69.83</ele>
        <time>2021-03-01T12:34:54Z</time>
      </trkpt>
      <trkpt lat="49.2626" lon="0.17984">
        <ele>71.76</ele>
        <time>2021-03-01T12:35:09Z</time>
      </trkpt>
      <trkpt lat="49.26249" lon="0.17973">
        <ele>72.24</ele>
        <time>2021-03-01T12:35:23Z</time>
      </trkpt>
      <trkpt lat="49.26239" lon="0.1796">
        <ele>73.2</ele>
        <time>2021-03-01T12:35:38Z</time>
      </trkpt>
      <trkpt lat="49.26228" lon="0.17947">
        <ele>74.16</ele>
        <time>2021-03-01T12:35:53Z</time>
      </trkpt>
      <trkpt lat="49.26214" lon="0.1793">
        <ele>75.6</ele>
        <time>2021-03-01T12:36:08Z</time>
      </trkpt>
      <trkpt lat="49.26207" lon="0.17913">
        <ele>76.08</ele>
        <time>2021-03-01T12:36:22Z</time>
      </trkpt>
      <trkpt lat="49.26204" lon="0.17906">
        <ele>76.08</ele>
        <time>2021-03-01T12:36:37Z</time>
      </trkpt>
      <trkpt lat="49.26196" lon="0.17897">
        <ele>77.04</ele>
        <time>2021-03-01T12:36:53Z</time>
      </trkpt>
      <trkpt lat="49.2618" lon="0.17892">
        <ele>78.97</ele>
        <time>2021-03-01T12:37:13Z</time>
      </trkpt>
      <trkpt lat="49.26164" lon="0.17886">
        <ele>79.93</ele>
        <time>2021-03-01T12:37:28Z</time>
      </trkpt>
      <trkpt lat="49.26151" lon="0.17879">
        <ele>81.85</ele>
        <time>2021-03-01T12:37:44Z</time>
      </trkpt>
      <trkpt lat="49.26141" lon="0.17867">
        <ele>83.77</ele>
        <time>2021-03-01T12:38:00Z</time>
      </trkpt>
      <trkpt lat="49.26131" lon="0.17855">
        <ele>84.25</ele>
        <time>2021-03-01T12:38:13Z</time>
      </trkpt>
      <trkpt lat="49.26122" lon="0.17847">
        <ele>85.21</ele>
        <time>2021-03-01T12:38:25Z</time>
      </trkpt>
      <trkpt lat="49.2611" lon="0.17834">
        <ele>85.69</ele>
        <time>2021-03-01T12:38:40Z</time>
      </trkpt>
      <trkpt lat="49.26099" lon="0.17823">
        <ele>86.66</ele>
        <time>2021-03-01T12:38:56Z</time>
      </trkpt>
      <trkpt lat="49.26087" lon="0.17812">
        <ele>86.66</ele>
        <time>2021-03-01T12:39:09Z</time>
      </trkpt>
      <trkpt lat="49.26074" lon="0.17799">
        <ele>88.1</ele>
        <time>2021-03-01T12:39:27Z</time>
      </trkpt>
      <trkpt lat="49.26063" lon="0.17783">
        <ele>88.58</ele>
        <time>2021-03-01T12:39:43Z</time>
      </trkpt>
      <trkpt lat="49.26052" lon="0.17773">
        <ele>88.58</ele>
        <time>2021-03-01T12:39:56Z</time>
      </trkpt>
      <trkpt lat="49.26036" lon="0.17764">
        <ele>89.06</ele>
        <time>2021-03-01T12:40:12Z</time>
      </trkpt>
      <trkpt lat="49.2602" lon="0.17757">
        <ele>89.54</ele>
        <time>2021-03-01T12:40:29Z</time>
      </trkpt>
      <trkpt lat="49.26003" lon="0.17753">
        <ele>90.5</ele>
        <time>2021-03-01T12:40:46Z</time>
      </trkpt>
      <trkpt lat="49.25992" lon="0.17747">
        <ele>90.98</ele>
        <time>2021-03-01T12:41:00Z</time>
      </trkpt>
      <trkpt lat="49.25985" lon="0.17741">
        <ele>91.46</ele>
        <time>2021-03-01T12:41:13Z</time>
      </trkpt>
      <trkpt lat="49.2597" lon="0.17724">
        <ele>91.46</ele>
        <time>2021-03-01T12:41:30Z</time>
      </trkpt>
      <trkpt lat="49.25958" lon="0.17712">
        <ele>91.94</ele>
        <time>2021-03-01T12:41:44Z</time>
      </trkpt>
      <trkpt lat="49.25948" lon="0.17701">
        <ele>92.42</ele>
        <time>2021-03-01T12:41:58Z</time>
      </trkpt>
      <trkpt lat="49.25937" lon="0.17687">
        <ele>93.39</ele>
        <time>2021-03-01T12:42:13Z</time>
      </trkpt>
      <trkpt lat="49.25926" lon="0.17675">
        <ele>93.39</ele>
        <time>2021-03-01T12:42:27Z</time>
      </trkpt>
      <trkpt lat="49.25911" lon="0.17661">
        <ele>93.87</ele>
        <time>2021-03-01T12:42:42Z</time>
      </trkpt>
      <trkpt lat="49.25908" lon="0.1765">
        <ele>94.35</ele>
        <time>2021-03-01T12:42:50Z</time>
      </trkpt>
      <trkpt lat="49.25911" lon="0.17628">
        <ele>95.31</ele>
        <time>2021-03-01T12:43:05Z</time>
      </trkpt>
      <trkpt lat="49.25911" lon="0.1761">
        <ele>95.79</ele>
        <time>2021-03-01T12:43:21Z</time>
      </trkpt>
      <trkpt lat="49.2591" lon="0.17589">
        <ele>95.79</ele>
        <time>2021-03-01T12:43:34Z</time>
      </trkpt>
      <trkpt lat="49.25906" lon="0.17564">
        <ele>94.35</ele>
        <time>2021-03-01T12:43:49Z</time>
      </trkpt>
      <trkpt lat="49.25901" lon="0.17544">
        <ele>93.39</ele>
        <time>2021-03-01T12:44:03Z</time>
      </trkpt>
      <trkpt lat="49.25898" lon="0.1752">
        <ele>91.94</ele>
        <time>2021-03-01T12:44:19Z</time>
      </trkpt>
      <trkpt lat="49.25892" lon="0.17498">
        <ele>90.5</ele>
        <time>2021-03-01T12:44:35Z</time>
      </trkpt>
      <trkpt lat="49.25889" lon="0.17479">
        <ele>87.62</ele>
        <time>2021-03-01T12:44:50Z</time>
      </trkpt>
      <trkpt lat="49.25884" lon="0.17456">
        <ele>85.21</ele>
        <time>2021-03-01T12:45:07Z</time>
      </trkpt>
      <trkpt lat="49.25881" lon="0.17433">
        <ele>84.25</ele>
        <time>2021-03-01T12:45:24Z</time>
      </trkpt>
      <trkpt lat="49.25878" lon="0.17415">
        <ele>83.77</ele>
        <time>2021-03-01T12:45:36Z</time>
      </trkpt>
      <trkpt lat="49.25874" lon="0.17394">
        <ele>82.33</ele>
        <time>2021-03-01T12:45:50Z</time>
      </trkpt>
      <trkpt lat="49.25867" lon="0.17371">
        <ele>78.97</ele>
        <time>2021-03-01T12:46:07Z</time>
      </trkpt>
      <trkpt lat="49.25866" lon="0.17355">
        <ele>76.56</ele>
        <time>2021-03-01T12:46:19Z</time>
      </trkpt>
      <trkpt lat="49.25859" lon="0.17334">
        <ele>73.68</ele>
        <time>2021-03-01T12:46:35Z</time>
      </trkpt>
      <trkpt lat="49.25852" lon="0.17313">
        <ele>71.27</ele>
        <time>2021-03-01T12:46:53Z</time>
      </trkpt>
      <trkpt lat="49.25851" lon="0.17311">
        <ele>71.27</ele>
        <time>2021-03-01T12:46:55Z</time>
      </trkpt>
      <trkpt lat="49.25844" lon="0.17295">
        <ele>69.35</ele>
        <time>2021-03-01T12:47:10Z</time>
      </trkpt>
      <trkpt lat="49.25841" lon="0.17275">
        <ele>67.43</ele>
        <time>2021-03-01T12:47:24Z</time>
      </trkpt>
      <trkpt lat="49.25838" lon="0.17253">
        <ele>65.51</ele>
        <time>2021-03-01T12:47:41Z</time>
      </trkpt>
      <trkpt lat="49.25832" lon="0.17246">
        <ele>66.47</ele>
        <time>2021-03-01T12:47:55Z</time>
      </trkpt>
      <trkpt lat="49.25822" lon="0.17243">
        <ele>67.91</ele>
        <time>2021-03-01T12:48:11Z</time>
      </trkpt>
      <trkpt lat="49.25812" lon="0.17234">
        <ele>70.31</ele>
        <time>2021-03-01T12:48:29Z</time>
      </trkpt>
      <trkpt lat="49.25802" lon="0.17229">
        <ele>72.24</ele>
        <time>2021-03-01T12:48:43Z</time>
      </trkpt>
      <trkpt lat="49.25793" lon="0.17228">
        <ele>74.16</ele>
        <time>2021-03-01T12:49:01Z</time>
      </trkpt>
      <trkpt lat="49.25785" lon="0.1723">
        <ele>75.6</ele>
        <time>2021-03-01T12:49:18Z</time>
      </trkpt>
      <trkpt lat="49.25779" lon="0.17227">
        <ele>77.52</ele>
        <time>2021-03-01T12:49:35Z</time>
      </trkpt>
      <trkpt lat="49.25771" lon="0.17229">
        <ele>79.45</ele>
        <time>2021-03-01T12:49:49Z</time>
      </trkpt>
      <trkpt lat="49.25762" lon="0.17234">
        <ele>81.85</ele>
        <time>2021-03-01T12:50:04Z</time>
      </trkpt>
      <trkpt lat="49.25754" lon="0.1724">
        <ele>83.77</ele>
        <time>2021-03-01T12:50:20Z</time>
      </trkpt>
      <trkpt lat="49.25746" lon="0.17246">
        <ele>86.18</ele>
        <time>2021-03-01T12:50:36Z</time>
      </trkpt>
      <trkpt lat="49.25738" lon="0.17253">
        <ele>88.1</ele>
        <time>2021-03-01T12:50:51Z</time>
      </trkpt>
      <trkpt lat="49.25729" lon="0.17262">
        <ele>90.02</ele>
        <time>2021-03-01T12:51:08Z</time>
      </trkpt>
      <trkpt lat="49.25725" lon="0.17278">
        <ele>91.46</ele>
        <time>2021-03-01T12:51:24Z</time>
      </trkpt>
      <trkpt lat="49.25725" lon="0.17291">
        <ele>92.42</ele>
        <time>2021-03-01T12:51:37Z</time>
      </trkpt>
      <trkpt lat="49.25725" lon="0.1731">
        <ele>93.87</ele>
        <time>2021-03-01T12:51:54Z</time>
      </trkpt>
      <trkpt lat="49.25725" lon="0.17328">
        <ele>96.75</ele>
        <time>2021-03-01T12:52:13Z</time>
      </trkpt>
      <trkpt lat="49.25718" lon="0.17347">
        <ele>97.71</ele>
        <time>2021-03-01T12:52:29Z</time>
      </trkpt>
      <trkpt lat="49.25714" lon="0.17355">
        <ele>97.71</ele>
        <time>2021-03-01T12:52:35Z</time>
      </trkpt>
      <trkpt lat="49.25706" lon="0.1737">
        <ele>97.71</ele>
        <time>2021-03-01T12:52:47Z</time>
      </trkpt>
      <trkpt lat="49.25697" lon="0.17392">
        <ele>98.19</ele>
        <time>2021-03-01T12:53:02Z</time>
      </trkpt>
      <trkpt lat="49.2569" lon="0.17403">
        <ele>99.15</ele>
        <time>2021-03-01T12:53:14Z</time>
      </trkpt>
      <trkpt lat="49.25685" lon="0.17413">
        <ele>99.15</ele>
        <time>2021-03-01T12:53:27Z</time>
      </trkpt>
      <trkpt lat="49.25673" lon="0.17431">
        <ele>99.63</ele>
        <time>2021-03-01T12:53:42Z</time>
      </trkpt>
      <trkpt lat="49.25664" lon="0.17449">
        <ele>99.63</ele>
        <time>2021-03-01T12:53:55Z</time>
      </trkpt>
      <trkpt lat="49.25655" lon="0.17467">
        <ele>100.11</ele>
        <time>2021-03-01T12:54:11Z</time>
      </trkpt>
      <trkpt lat="49.25646" lon="0.17493">
        <ele>100.11</ele>
        <time>2021-03-01T12:54:28Z</time>
      </trkpt>
      <trkpt lat="49.25639" lon="0.17518">
        <ele>100.11</ele>
        <time>2021-03-01T12:54:44Z</time>
      </trkpt>
      <trkpt lat="49.25632" lon="0.17546">
        <ele>100.11</ele>
        <time>2021-03-01T12:55:00Z</time>
      </trkpt>
      <trkpt lat="49.25629" lon="0.17575">
        <ele>100.6</ele>
        <time>2021-03-01T12:55:18Z</time>
      </trkpt>
      <trkpt lat="49.2562" lon="0.17598">
        <ele>101.08</ele>
        <time>2021-03-01T12:55:34Z</time>
      </trkpt>
      <trkpt lat="49.25608" lon="0.17617">
        <ele>101.08</ele>
        <time>2021-03-01T12:55:48Z</time>
      </trkpt>
      <trkpt lat="49.25593" lon="0.17636">
        <ele>101.08</ele>
        <time>2021-03-01T12:56:07Z</time>
      </trkpt>
      <trkpt lat="49.25585" lon="0.17661">
        <ele>101.56</ele>
        <time>2021-03-01T12:56:23Z</time>
      </trkpt>
      <trkpt lat="49.25578" lon="0.17691">
        <ele>101.56</ele>
        <time>2021-03-01T12:56:39Z</time>
      </trkpt>
      <trkpt lat="49.2557" lon="0.17719">
        <ele>102.04</ele>
        <time>2021-03-01T12:56:56Z</time>
      </trkpt>
      <trkpt lat="49.25562" lon="0.17745">
        <ele>102.52</ele>
        <time>2021-03-01T12:57:13Z</time>
      </trkpt>
      <trkpt lat="49.25553" lon="0.17764">
        <ele>102.52</ele>
        <time>2021-03-01T12:57:30Z</time>
      </trkpt>
      <trkpt lat="49.25543" lon="0.17776">
        <ele>103</ele>
        <time>2021-03-01T12:57:46Z</time>
      </trkpt>
      <trkpt lat="49.25527" lon="0.17791">
        <ele>102.52</ele>
        <time>2021-03-01T12:58:02Z</time>
      </trkpt>
      <trkpt lat="49.25512" lon="0.17803">
        <ele>102.52</ele>
        <time>2021-03-01T12:58:18Z</time>
      </trkpt>
      <trkpt lat="49.25494" lon="0.1782">
        <ele>102.52</ele>
        <time>2021-03-01T12:58:34Z</time>
      </trkpt>
      <trkpt lat="49.25478" lon="0.1785">
        <ele>102.52</ele>
        <time>2021-03-01T12:58:52Z</time>
      </trkpt>
      <trkpt lat="49.2547" lon="0.17869">
        <ele>102.52</ele>
        <time>2021-03-01T12:59:06Z</time>
      </trkpt>
      <trkpt lat="49.25462" lon="0.17895">
        <ele>102.52</ele>
        <time>2021-03-01T12:59:19Z</time>
      </trkpt>
      <trkpt lat="49.25455" lon="0.17914">
        <ele>102.52</ele>
        <time>2021-03-01T12:59:32Z</time>
      </trkpt>
      <trkpt lat="49.25446" lon="0.17941">
        <ele>103</ele>
        <time>2021-03-01T12:59:48Z</time>
      </trkpt>
      <trkpt lat="49.25446" lon="0.17952">
        <ele>103</ele>
        <time>2021-03-01T12:59:53Z</time>
      </trkpt>
      <trkpt lat="49.25442" lon="0.17985">
        <ele>103</ele>
        <time>2021-03-01T13:00:11Z</time>
      </trkpt>
      <trkpt lat="49.25436" lon="0.18004">
        <ele>103</ele>
        <time>2021-03-01T13:00:24Z</time>
      </trkpt>
      <trkpt lat="49.25427" lon="0.18019">
        <ele>103</ele>
        <time>2021-03-01T13:00:38Z</time>
      </trkpt>
      <trkpt lat="49.25418" lon="0.18042">
        <ele>103</ele>
        <time>2021-03-01T13:00:53Z</time>
      </trkpt>
      <trkpt lat="49.25411" lon="0.18067">
        <ele>103</ele>
        <time>2021-03-01T13:01:08Z</time>
      </trkpt>
      <trkpt lat="49.25406" lon="0.18072">
        <ele>103</ele>
        <time>2021-03-01T13:01:22Z</time>
      </trkpt>
      <trkpt lat="49.25393" lon="0.18087">
        <ele>103</ele>
        <time>2021-03-01T13:01:38Z</time>
      </trkpt>
      <trkpt lat="49.25379" lon="0.18104">
        <ele>103.48</ele>
        <time>2021-03-01T13:01:54Z</time>
      </trkpt>
      <trkpt lat="49.25362" lon="0.18128">
        <ele>103.48</ele>
        <time>2021-03-01T13:02:12Z</time>
      </trkpt>
      <trkpt lat="49.25356" lon="0.1814">
        <ele>102.04</ele>
        <time>2021-03-01T13:02:19Z</time>
      </trkpt>
      <trkpt lat="49.25356" lon="0.18148">
        <ele>102.04</ele>
        <time>2021-03-01T13:02:23Z</time>
      </trkpt>
      <trkpt lat="49.25358" lon="0.18154">
        <ele>102.04</ele>
        <time>2021-03-01T13:02:27Z</time>
      </trkpt>
      <trkpt lat="49.25367" lon="0.18183">
        <ele>103.48</ele>
        <time>2021-03-01T13:02:44Z</time>
      </trkpt>
      <trkpt lat="49.25361" lon="0.18212">
        <ele>103.48</ele>
        <time>2021-03-01T13:03:04Z</time>
      </trkpt>
      <trkpt lat="49.25354" lon="0.18232">
        <ele>103.96</ele>
        <time>2021-03-01T13:03:18Z</time>
      </trkpt>
      <trkpt lat="49.25351" lon="0.18264">
        <ele>104.92</ele>
        <time>2021-03-01T13:03:35Z</time>
      </trkpt>
      <trkpt lat="49.25344" lon="0.18281">
        <ele>104.92</ele>
        <time>2021-03-01T13:03:50Z</time>
      </trkpt>
      <trkpt lat="49.25335" lon="0.18309">
        <ele>104.92</ele>
        <time>2021-03-01T13:04:09Z</time>
      </trkpt>
      <trkpt lat="49.25329" lon="0.18344">
        <ele>104.92</ele>
        <time>2021-03-01T13:04:29Z</time>
      </trkpt>
      <trkpt lat="49.25326" lon="0.18355">
        <ele>105.4</ele>
        <time>2021-03-01T13:04:36Z</time>
      </trkpt>
      <trkpt lat="49.25314" lon="0.18393">
        <ele>105.4</ele>
        <time>2021-03-01T13:04:58Z</time>
      </trkpt>
      <trkpt lat="49.25303" lon="0.18422">
        <ele>105.88</ele>
        <time>2021-03-01T13:05:18Z</time>
      </trkpt>
      <trkpt lat="49.25289" lon="0.18446">
        <ele>106.36</ele>
        <time>2021-03-01T13:05:38Z</time>
      </trkpt>
      <trkpt lat="49.25272" lon="0.18468">
        <ele>106.36</ele>
        <time>2021-03-01T13:05:59Z</time>
      </trkpt>
      <trkpt lat="49.25253" lon="0.1849">
        <ele>106.36</ele>
        <time>2021-03-01T13:06:19Z</time>
      </trkpt>
      <trkpt lat="49.2523" lon="0.18514">
        <ele>106.84</ele>
        <time>2021-03-01T13:06:42Z</time>
      </trkpt>
      <trkpt lat="49.25213" lon="0.18534">
        <ele>107.32</ele>
        <time>2021-03-01T13:07:00Z</time>
      </trkpt>
      <trkpt lat="49.25196" lon="0.18551">
        <ele>107.32</ele>
        <time>2021-03-01T13:07:17Z</time>
      </trkpt>
      <trkpt lat="49.25173" lon="0.18576">
        <ele>107.32</ele>
        <time>2021-03-01T13:07:41Z</time>
      </trkpt>
      <trkpt lat="49.25157" lon="0.18592">
        <ele>105.88</ele>
        <time>2021-03-01T13:07:59Z</time>
      </trkpt>
      <trkpt lat="49.25152" lon="0.186">
        <ele>105.88</ele>
        <time>2021-03-01T13:08:15Z</time>
      </trkpt>
      <trkpt lat="49.25137" lon="0.18612">
        <ele>105.88</ele>
        <time>2021-03-01T13:08:32Z</time>
      </trkpt>
      <trkpt lat="49.25118" lon="0.18629">
        <ele>104.44</ele>
        <time>2021-03-01T13:08:50Z</time>
      </trkpt>
      <trkpt lat="49.25093" lon="0.18643">
        <ele>102.52</ele>
        <time>2021-03-01T13:09:11Z</time>
      </trkpt>
      <trkpt lat="49.25076" lon="0.18648">
        <ele>102.52</ele>
        <time>2021-03-01T13:09:25Z</time>
      </trkpt>
      <trkpt lat="49.25061" lon="0.18649">
        <ele>102.52</ele>
        <time>2021-03-01T13:09:39Z</time>
      </trkpt>
      <trkpt lat="49.2504" lon="0.18653">
        <ele>103.96</ele>
        <time>2021-03-01T13:09:57Z</time>
      </trkpt>
      <trkpt lat="49.25019" lon="0.18659">
        <ele>105.4</ele>
        <time>2021-03-01T13:10:16Z</time>
      </trkpt>
      <trkpt lat="49.24997" lon="0.18662">
        <ele>106.36</ele>
        <time>2021-03-01T13:10:35Z</time>
      </trkpt>
      <trkpt lat="49.2497" lon="0.18662">
        <ele>107.32</ele>
        <time>2021-03-01T13:10:55Z</time>
      </trkpt>
      <trkpt lat="49.24948" lon="0.18662">
        <ele>107.32</ele>
        <time>2021-03-01T13:11:14Z</time>
      </trkpt>
      <trkpt lat="49.24929" lon="0.18659">
        <ele>108.29</ele>
        <time>2021-03-01T13:11:31Z</time>
      </trkpt>
      <trkpt lat="49.24915" lon="0.18657">
        <ele>108.29</ele>
        <time>2021-03-01T13:11:46Z</time>
      </trkpt>
      <trkpt lat="49.24895" lon="0.18657">
        <ele>108.77</ele>
        <time>2021-03-01T13:12:04Z</time>
      </trkpt>
      <trkpt lat="49.24875" lon="0.18657">
        <ele>108.77</ele>
        <time>2021-03-01T13:12:20Z</time>
      </trkpt>
      <trkpt lat="49.24855" lon="0.18659">
        <ele>108.77</ele>
        <time>2021-03-01T13:12:39Z</time>
      </trkpt>
      <trkpt lat="49.24834" lon="0.18658">
        <ele>109.25</ele>
        <time>2021-03-01T13:12:58Z</time>
      </trkpt>
      <trkpt lat="49.24817" lon="0.1866">
        <ele>108.77</ele>
        <time>2021-03-01T13:13:14Z</time>
      </trkpt>
      <trkpt lat="49.24802" lon="0.18662">
        <ele>108.77</ele>
        <time>2021-03-01T13:13:29Z</time>
      </trkpt>
      <trkpt lat="49.24785" lon="0.18661">
        <ele>108.77</ele>
        <time>2021-03-01T13:13:44Z</time>
      </trkpt>
      <trkpt lat="49.24768" lon="0.18663">
        <ele>108.77</ele>
        <time>2021-03-01T13:14:01Z</time>
      </trkpt>
      <trkpt lat="49.2475" lon="0.18662">
        <ele>108.77</ele>
        <time>2021-03-01T13:14:17Z</time>
      </trkpt>
      <trkpt lat="49.2473" lon="0.18664">
        <ele>108.77</ele>
        <time>2021-03-01T13:14:29Z</time>
      </trkpt>
      <trkpt lat="49.24716" lon="0.18662">
        <ele>108.77</ele>
        <time>2021-03-01T13:14:42Z</time>
      </trkpt>
      <trkpt lat="49.24699" lon="0.18662">
        <ele>108.77</ele>
        <time>2021-03-01T13:14:57Z</time>
      </trkpt>
      <trkpt lat="49.24682" lon="0.1866">
        <ele>108.77</ele>
        <time>2021-03-01T13:15:14Z</time>
      </trkpt>
      <trkpt lat="49.24675" lon="0.18659">
        <ele>108.77</ele>
        <time>2021-03-01T13:15:20Z</time>
      </trkpt>
      <trkpt lat="49.2466" lon="0.18656">
        <ele>109.25</ele>
        <time>2021-03-01T13:15:34Z</time>
      </trkpt>
      <trkpt lat="49.2464" lon="0.18652">
        <ele>109.25</ele>
        <time>2021-03-01T13:15:50Z</time>
      </trkpt>
      <trkpt lat="49.24626" lon="0.18652">
        <ele>109.25</ele>
        <time>2021-03-01T13:16:04Z</time>
      </trkpt>
      <trkpt lat="49.24614" lon="0.18648">
        <ele>109.25</ele>
        <time>2021-03-01T13:16:17Z</time>
      </trkpt>
      <trkpt lat="49.24596" lon="0.18645">
        <ele>108.77</ele>
        <time>2021-03-01T13:16:34Z</time>
      </trkpt>
      <trkpt lat="49.24579" lon="0.18644">
        <ele>108.77</ele>
        <time>2021-03-01T13:16:48Z</time>
      </trkpt>
      <trkpt lat="49.24558" lon="0.18637">
        <ele>109.25</ele>
        <time>2021-03-01T13:17:05Z</time>
      </trkpt>
      <trkpt lat="49.24542" lon="0.18632">
        <ele>109.73</ele>
        <time>2021-03-01T13:17:20Z</time>
      </trkpt>
      <trkpt lat="49.24527" lon="0.18624">
        <ele>109.73</ele>
        <time>2021-03-01T13:17:35Z</time>
      </trkpt>
      <trkpt lat="49.24515" lon="0.18612">
        <ele>110.21</ele>
        <time>2021-03-01T13:17:51Z</time>
      </trkpt>
      <trkpt lat="49.24501" lon="0.18593">
        <ele>110.69</ele>
        <time>2021-03-01T13:18:08Z</time>
      </trkpt>
      <trkpt lat="49.24494" lon="0.18582">
        <ele>110.69</ele>
        <time>2021-03-01T13:18:17Z</time>
      </trkpt>
      <trkpt lat="49.24486" lon="0.18562">
        <ele>110.69</ele>
        <time>2021-03-01T13:18:32Z</time>
      </trkpt>
      <trkpt lat="49.24483" lon="0.1854">
        <ele>110.69</ele>
        <time>2021-03-01T13:18:46Z</time>
      </trkpt>
      <trkpt lat="49.24477" lon="0.18516">
        <ele>110.69</ele>
        <time>2021-03-01T13:18:59Z</time>
      </trkpt>
      <trkpt lat="49.24476" lon="0.18513">
        <ele>110.69</ele>
        <time>2021-03-01T13:19:00Z</time>
      </trkpt>
      <trkpt lat="49.24464" lon="0.18493">
        <ele>110.69</ele>
        <time>2021-03-01T13:19:17Z</time>
      </trkpt>
      <trkpt lat="49.24456" lon="0.18478">
        <ele>110.69</ele>
        <time>2021-03-01T13:19:32Z</time>
      </trkpt>
      <trkpt lat="49.24444" lon="0.18464">
        <ele>110.69</ele>
        <time>2021-03-01T13:19:45Z</time>
      </trkpt>
      <trkpt lat="49.2443" lon="0.18449">
        <ele>110.69</ele>
        <time>2021-03-01T13:20:00Z</time>
      </trkpt>
      <trkpt lat="49.24417" lon="0.18434">
        <ele>110.69</ele>
        <time>2021-03-01T13:20:16Z</time>
      </trkpt>
      <trkpt lat="49.24404" lon="0.18421">
        <ele>111.17</ele>
        <time>2021-03-01T13:20:32Z</time>
      </trkpt>
      <trkpt lat="49.24393" lon="0.18411">
        <ele>112.13</ele>
        <time>2021-03-01T13:20:45Z</time>
      </trkpt>
      <trkpt lat="49.2438" lon="0.18401">
        <ele>112.13</ele>
        <time>2021-03-01T13:21:00Z</time>
      </trkpt>
      <trkpt lat="49.24368" lon="0.18384">
        <ele>112.13</ele>
        <time>2021-03-01T13:21:16Z</time>
      </trkpt>
      <trkpt lat="49.24368" lon="0.18368">
        <ele>113.09</ele>
        <time>2021-03-01T13:21:30Z</time>
      </trkpt>
      <trkpt lat="49.24373" lon="0.18346">
        <ele>113.57</ele>
        <time>2021-03-01T13:21:46Z</time>
      </trkpt>
      <trkpt lat="49.24376" lon="0.18328">
        <ele>114.05</ele>
        <time>2021-03-01T13:21:59Z</time>
      </trkpt>
      <trkpt lat="49.24382" lon="0.18315">
        <ele>114.53</ele>
        <time>2021-03-01T13:22:12Z</time>
      </trkpt>
      <trkpt lat="49.24383" lon="0.1831">
        <ele>114.53</ele>
        <time>2021-03-01T13:22:16Z</time>
      </trkpt>
      <trkpt lat="49.24392" lon="0.1829">
        <ele>114.53</ele>
        <time>2021-03-01T13:22:29Z</time>
      </trkpt>
      <trkpt lat="49.24399" lon="0.18274">
        <ele>115.01</ele>
        <time>2021-03-01T13:22:41Z</time>
      </trkpt>
      <trkpt lat="49.24413" lon="0.18251">
        <ele>115.01</ele>
        <time>2021-03-01T13:22:56Z</time>
      </trkpt>
      <trkpt lat="49.2442" lon="0.18231">
        <ele>115.5</ele>
        <time>2021-03-01T13:23:10Z</time>
      </trkpt>
      <trkpt lat="49.24428" lon="0.18215">
        <ele>115.5</ele>
        <time>2021-03-01T13:23:22Z</time>
      </trkpt>
      <trkpt lat="49.2443" lon="0.18212">
        <ele>115.5</ele>
        <time>2021-03-01T13:23:24Z</time>
      </trkpt>
      <trkpt lat="49.24438" lon="0.18189">
        <ele>115.98</ele>
        <time>2021-03-01T13:23:41Z</time>
      </trkpt>
      <trkpt lat="49.24448" lon="0.18164">
        <ele>115.5</ele>
        <time>2021-03-01T13:23:59Z</time>
      </trkpt>
      <trkpt lat="49.24456" lon="0.18144">
        <ele>115.5</ele>
        <time>2021-03-01T13:24:14Z</time>
      </trkpt>
      <trkpt lat="49.2447" lon="0.1812">
        <ele>115.5</ele>
        <time>2021-03-01T13:24:29Z</time>
      </trkpt>
      <trkpt lat="49.24484" lon="0.18092">
        <ele>115.5</ele>
        <time>2021-03-01T13:24:46Z</time>
      </trkpt>
      <trkpt lat="49.24491" lon="0.18065">
        <ele>115.5</ele>
        <time>2021-03-01T13:25:03Z</time>
      </trkpt>
      <trkpt lat="49.24498" lon="0.18042">
        <ele>115.5</ele>
        <time>2021-03-01T13:25:18Z</time>
      </trkpt>
      <trkpt lat="49.24506" lon="0.18024">
        <ele>114.53</ele>
        <time>2021-03-01T13:25:31Z</time>
      </trkpt>
      <trkpt lat="49.24511" lon="0.18006">
        <ele>114.05</ele>
        <time>2021-03-01T13:25:42Z</time>
      </trkpt>
      <trkpt lat="49.24518" lon="0.1797">
        <ele>114.05</ele>
        <time>2021-03-01T13:25:59Z</time>
      </trkpt>
      <trkpt lat="49.24523" lon="0.17954">
        <ele>113.57</ele>
        <time>2021-03-01T13:26:11Z</time>
      </trkpt>
      <trkpt lat="49.24526" lon="0.17936">
        <ele>113.57</ele>
        <time>2021-03-01T13:26:21Z</time>
      </trkpt>
      <trkpt lat="49.24525" lon="0.17921">
        <ele>113.09</ele>
        <time>2021-03-01T13:26:30Z</time>
      </trkpt>
      <trkpt lat="49.24522" lon="0.1791">
        <ele>113.09</ele>
        <time>2021-03-01T13:26:37Z</time>
      </trkpt>
      <trkpt lat="49.24505" lon="0.17898">
        <ele>113.09</ele>
        <time>2021-03-01T13:26:56Z</time>
      </trkpt>
      <trkpt lat="49.24485" lon="0.17886">
        <ele>113.09</ele>
        <time>2021-03-01T13:27:16Z</time>
      </trkpt>
      <trkpt lat="49.24469" lon="0.17875">
        <ele>114.05</ele>
        <time>2021-03-01T13:27:31Z</time>
      </trkpt>
      <trkpt lat="49.24455" lon="0.1786">
        <ele>114.05</ele>
        <time>2021-03-01T13:27:47Z</time>
      </trkpt>
      <trkpt lat="49.24442" lon="0.17845">
        <ele>114.05</ele>
        <time>2021-03-01T13:28:02Z</time>
      </trkpt>
      <trkpt lat="49.24432" lon="0.17823">
        <ele>114.05</ele>
        <time>2021-03-01T13:28:18Z</time>
      </trkpt>
      <trkpt lat="49.24426" lon="0.17804">
        <ele>114.05</ele>
        <time>2021-03-01T13:28:33Z</time>
      </trkpt>
      <trkpt lat="49.24414" lon="0.17775">
        <ele>114.53</ele>
        <time>2021-03-01T13:28:49Z</time>
      </trkpt>
      <trkpt lat="49.24404" lon="0.1775">
        <ele>114.53</ele>
        <time>2021-03-01T13:29:07Z</time>
      </trkpt>
      <trkpt lat="49.24397" lon="0.17728">
        <ele>114.53</ele>
        <time>2021-03-01T13:29:23Z</time>
      </trkpt>
      <trkpt lat="49.24385" lon="0.17705">
        <ele>114.05</ele>
        <time>2021-03-01T13:29:40Z</time>
      </trkpt>
      <trkpt lat="49.24375" lon="0.17684">
        <ele>114.53</ele>
        <time>2021-03-01T13:29:56Z</time>
      </trkpt>
      <trkpt lat="49.2436" lon="0.17661">
        <ele>114.53</ele>
        <time>2021-03-01T13:30:12Z</time>
      </trkpt>
      <trkpt lat="49.24358" lon="0.17656">
        <ele>114.53</ele>
        <time>2021-03-01T13:30:15Z</time>
      </trkpt>
      <trkpt lat="49.24348" lon="0.17638">
        <ele>114.05</ele>
        <time>2021-03-01T13:30:31Z</time>
      </trkpt>
      <trkpt lat="49.24332" lon="0.17623">
        <ele>114.53</ele>
        <time>2021-03-01T13:30:47Z</time>
      </trkpt>
      <trkpt lat="49.24309" lon="0.17609">
        <ele>114.53</ele>
        <time>2021-03-01T13:31:07Z</time>
      </trkpt>
      <trkpt lat="49.24288" lon="0.17597">
        <ele>114.53</ele>
        <time>2021-03-01T13:31:24Z</time>
      </trkpt>
      <trkpt lat="49.24279" lon="0.17592">
        <ele>115.01</ele>
        <time>2021-03-01T13:31:32Z</time>
      </trkpt>
      <trkpt lat="49.24255" lon="0.17575">
        <ele>115.01</ele>
        <time>2021-03-01T13:31:52Z</time>
      </trkpt>
      <trkpt lat="49.24236" lon="0.1756">
        <ele>115.01</ele>
        <time>2021-03-01T13:32:11Z</time>
      </trkpt>
      <trkpt lat="49.2422" lon="0.17547">
        <ele>115.01</ele>
        <time>2021-03-01T13:32:29Z</time>
      </trkpt>
      <trkpt lat="49.24201" lon="0.17534">
        <ele>115.01</ele>
        <time>2021-03-01T13:32:46Z</time>
      </trkpt>
      <trkpt lat="49.24179" lon="0.17522">
        <ele>115.5</ele>
        <time>2021-03-01T13:33:07Z</time>
      </trkpt>
      <trkpt lat="49.2416" lon="0.1751">
        <ele>115.5</ele>
        <time>2021-03-01T13:33:26Z</time>
      </trkpt>
      <trkpt lat="49.2414" lon="0.17495">
        <ele>115.5</ele>
        <time>2021-03-01T13:33:45Z</time>
      </trkpt>
      <trkpt lat="49.24125" lon="0.17477">
        <ele>115.5</ele>
        <time>2021-03-01T13:34:02Z</time>
      </trkpt>
      <trkpt lat="49.24109" lon="0.17463">
        <ele>115.5</ele>
        <time>2021-03-01T13:34:19Z</time>
      </trkpt>
      <trkpt lat="49.24094" lon="0.17455">
        <ele>115.5</ele>
        <time>2021-03-01T13:34:34Z</time>
      </trkpt>
      <trkpt lat="49.24073" lon="0.17447">
        <ele>115.5</ele>
        <time>2021-03-01T13:34:52Z</time>
      </trkpt>
      <trkpt lat="49.24058" lon="0.17439">
        <ele>115.5</ele>
        <time>2021-03-01T13:35:07Z</time>
      </trkpt>
      <trkpt lat="49.24044" lon="0.17432">
        <ele>115.98</ele>
        <time>2021-03-01T13:35:22Z</time>
      </trkpt>
      <trkpt lat="49.24024" lon="0.17424">
        <ele>116.46</ele>
        <time>2021-03-01T13:35:41Z</time>
      </trkpt>
      <trkpt lat="49.24005" lon="0.17416">
        <ele>116.94</ele>
        <time>2021-03-01T13:35:59Z</time>
      </trkpt>
      <trkpt lat="49.23987" lon="0.17403">
        <ele>116.94</ele>
        <time>2021-03-01T13:36:17Z</time>
      </trkpt>
      <trkpt lat="49.23967" lon="0.17387">
        <ele>116.94</ele>
        <time>2021-03-01T13:36:38Z</time>
      </trkpt>
      <trkpt lat="49.23947" lon="0.17375">
        <ele>116.94</ele>
        <time>2021-03-01T13:36:58Z</time>
      </trkpt>
      <trkpt lat="49.23929" lon="0.17365">
        <ele>116.94</ele>
        <time>2021-03-01T13:37:17Z</time>
      </trkpt>
      <trkpt lat="49.23911" lon="0.17355">
        <ele>117.9</ele>
        <time>2021-03-01T13:37:35Z</time>
      </trkpt>
      <trkpt lat="49.23894" lon="0.17343">
        <ele>117.9</ele>
        <time>2021-03-01T13:37:52Z</time>
      </trkpt>
      <trkpt lat="49.23877" lon="0.17333">
        <ele>118.38</ele>
        <time>2021-03-01T13:38:11Z</time>
      </trkpt>
      <trkpt lat="49.23857" lon="0.17321">
        <ele>118.38</ele>
        <time>2021-03-01T13:38:30Z</time>
      </trkpt>
      <trkpt lat="49.23844" lon="0.17315">
        <ele>118.38</ele>
        <time>2021-03-01T13:38:45Z</time>
      </trkpt>
      <trkpt lat="49.23828" lon="0.17305">
        <ele>118.38</ele>
        <time>2021-03-01T13:39:00Z</time>
      </trkpt>
      <trkpt lat="49.23804" lon="0.17288">
        <ele>118.38</ele>
        <time>2021-03-01T13:39:23Z</time>
      </trkpt>
      <trkpt lat="49.23786" lon="0.17284">
        <ele>118.38</ele>
        <time>2021-03-01T13:39:38Z</time>
      </trkpt>
      <trkpt lat="49.23782" lon="0.1728">
        <ele>118.86</ele>
        <time>2021-03-01T13:39:42Z</time>
      </trkpt>
      <trkpt lat="49.23768" lon="0.17254">
        <ele>117.42</ele>
        <time>2021-03-01T13:40:01Z</time>
      </trkpt>
      <trkpt lat="49.23748" lon="0.17235">
        <ele>116.94</ele>
        <time>2021-03-01T13:40:21Z</time>
      </trkpt>
      <trkpt lat="49.23731" lon="0.17217">
        <ele>116.94</ele>
        <time>2021-03-01T13:40:40Z</time>
      </trkpt>
      <trkpt lat="49.23723" lon="0.1721">
        <ele>116.94</ele>
        <time>2021-03-01T13:40:52Z</time>
      </trkpt>
      <trkpt lat="49.23708" lon="0.17195">
        <ele>116.46</ele>
        <time>2021-03-01T13:41:09Z</time>
      </trkpt>
      <trkpt lat="49.23706" lon="0.17195">
        <ele>116.46</ele>
        <time>2021-03-01T13:41:12Z</time>
      </trkpt>
      <trkpt lat="49.23699" lon="0.17199">
        <ele>116.46</ele>
        <time>2021-03-01T13:41:20Z</time>
      </trkpt>
      <trkpt lat="49.23682" lon="0.1721">
        <ele>116.46</ele>
        <time>2021-03-01T13:41:39Z</time>
      </trkpt>
      <trkpt lat="49.2367" lon="0.17222">
        <ele>116.46</ele>
        <time>2021-03-01T13:41:53Z</time>
      </trkpt>
      <trkpt lat="49.2366" lon="0.17234">
        <ele>116.46</ele>
        <time>2021-03-01T13:42:06Z</time>
      </trkpt>
      <trkpt lat="49.23634" lon="0.1726">
        <ele>115.5</ele>
        <time>2021-03-01T13:42:24Z</time>
      </trkpt>
      <trkpt lat="49.23616" lon="0.17278">
        <ele>115.98</ele>
        <time>2021-03-01T13:42:41Z</time>
      </trkpt>
      <trkpt lat="49.23595" lon="0.17303">
        <ele>114.53</ele>
        <time>2021-03-01T13:43:04Z</time>
      </trkpt>
      <trkpt lat="49.23578" lon="0.17311">
        <ele>114.05</ele>
        <time>2021-03-01T13:43:21Z</time>
      </trkpt>
      <trkpt lat="49.23556" lon="0.17321">
        <ele>114.05</ele>
        <time>2021-03-01T13:43:42Z</time>
      </trkpt>
      <trkpt lat="49.23543" lon="0.17337">
        <ele>114.05</ele>
        <time>2021-03-01T13:43:59Z</time>
      </trkpt>
      <trkpt lat="49.2354" lon="0.17352">
        <ele>115.5</ele>
        <time>2021-03-01T13:44:08Z</time>
      </trkpt>
      <trkpt lat="49.2354" lon="0.17378">
        <ele>116.46</ele>
        <time>2021-03-01T13:44:23Z</time>
      </trkpt>
      <trkpt lat="49.23541" lon="0.17383">
        <ele>116.46</ele>
        <time>2021-03-01T13:44:26Z</time>
      </trkpt>
      <trkpt lat="49.23543" lon="0.17416">
        <ele>116.94</ele>
        <time>2021-03-01T13:44:45Z</time>
      </trkpt>
      <trkpt lat="49.23545" lon="0.17444">
        <ele>118.38</ele>
        <time>2021-03-01T13:45:04Z</time>
      </trkpt>
      <trkpt lat="49.23543" lon="0.17467">
        <ele>118.86</ele>
        <time>2021-03-01T13:45:16Z</time>
      </trkpt>
      <trkpt lat="49.23535" lon="0.17494">
        <ele>119.34</ele>
        <time>2021-03-01T13:45:35Z</time>
      </trkpt>
      <trkpt lat="49.23519" lon="0.17518">
        <ele>119.82</ele>
        <time>2021-03-01T13:45:53Z</time>
      </trkpt>
      <trkpt lat="49.23505" lon="0.17537">
        <ele>120.3</ele>
        <time>2021-03-01T13:46:09Z</time>
      </trkpt>
      <trkpt lat="49.23484" lon="0.17566">
        <ele>120.78</ele>
        <time>2021-03-01T13:46:31Z</time>
      </trkpt>
      <trkpt lat="49.23468" lon="0.17583">
        <ele>121.74</ele>
        <time>2021-03-01T13:46:50Z</time>
      </trkpt>
      <trkpt lat="49.23451" lon="0.17595">
        <ele>122.22</ele>
        <time>2021-03-01T13:47:05Z</time>
      </trkpt>
      <trkpt lat="49.2345" lon="0.17596">
        <ele>122.22</ele>
        <time>2021-03-01T13:47:06Z</time>
      </trkpt>
      <trkpt lat="49.23431" lon="0.17607">
        <ele>122.71</ele>
        <time>2021-03-01T13:47:24Z</time>
      </trkpt>
      <trkpt lat="49.23411" lon="0.17617">
        <ele>123.19</ele>
        <time>2021-03-01T13:47:42Z</time>
      </trkpt>
      <trkpt lat="49.2339" lon="0.1763">
        <ele>124.15</ele>
        <time>2021-03-01T13:48:01Z</time>
      </trkpt>
      <trkpt lat="49.23374" lon="0.17643">
        <ele>124.63</ele>
        <time>2021-03-01T13:48:18Z</time>
      </trkpt>
      <trkpt lat="49.23359" lon="0.17658">
        <ele>125.11</ele>
        <time>2021-03-01T13:48:36Z</time>
      </trkpt>
      <trkpt lat="49.23344" lon="0.1767">
        <ele>125.59</ele>
        <time>2021-03-01T13:48:52Z</time>
      </trkpt>
      <trkpt lat="49.23325" lon="0.17687">
        <ele>126.07</ele>
        <time>2021-03-01T13:49:08Z</time>
      </trkpt>
      <trkpt lat="49.23306" lon="0.17701">
        <ele>126.55</ele>
        <time>2021-03-01T13:49:26Z</time>
      </trkpt>
      <trkpt lat="49.23286" lon="0.17715">
        <ele>127.03</ele>
        <time>2021-03-01T13:49:45Z</time>
      </trkpt>
      <trkpt lat="49.23266" lon="0.17728">
        <ele>127.51</ele>
        <time>2021-03-01T13:50:04Z</time>
      </trkpt>
      <trkpt lat="49.2324" lon="0.17741">
        <ele>127.99</ele>
        <time>2021-03-01T13:50:27Z</time>
      </trkpt>
      <trkpt lat="49.23216" lon="0.17749">
        <ele>127.99</ele>
        <time>2021-03-01T13:50:46Z</time>
      </trkpt>
      <trkpt lat="49.2319" lon="0.17749">
        <ele>128.47</ele>
        <time>2021-03-01T13:51:09Z</time>
      </trkpt>
      <trkpt lat="49.23181" lon="0.17749">
        <ele>128.95</ele>
        <time>2021-03-01T13:51:22Z</time>
      </trkpt>
      <trkpt lat="49.23179" lon="0.17748">
        <ele>128.95</ele>
        <time>2021-03-01T13:51:24Z</time>
      </trkpt>
      <trkpt lat="49.2315" lon="0.17747">
        <ele>128.95</ele>
        <time>2021-03-01T13:51:47Z</time>
      </trkpt>
      <trkpt lat="49.23118" lon="0.17749">
        <ele>129.43</ele>
        <time>2021-03-01T13:52:14Z</time>
      </trkpt>
      <trkpt lat="49.2309" lon="0.17755">
        <ele>129.92</ele>
        <time>2021-03-01T13:52:40Z</time>
      </trkpt>
      <trkpt lat="49.23065" lon="0.17767">
        <ele>129.92</ele>
        <time>2021-03-01T13:53:02Z</time>
      </trkpt>
      <trkpt lat="49.23047" lon="0.17777">
        <ele>129.92</ele>
        <time>2021-03-01T13:53:19Z</time>
      </trkpt>
      <trkpt lat="49.23039" lon="0.17787">
        <ele>129.92</ele>
        <time>2021-03-01T13:53:35Z</time>
      </trkpt>
      <trkpt lat="49.23038" lon="0.17791">
        <ele>129.92</ele>
        <time>2021-03-01T13:53:54Z</time>
      </trkpt>
      <trkpt lat="49.23021" lon="0.17798">
        <ele>126.55</ele>
        <time>2021-03-01T13:54:12Z</time>
      </trkpt>
      <trkpt lat="49.2302" lon="0.17799">
        <ele>128.95</ele>
        <time>2021-03-01T13:54:13Z</time>
      </trkpt>
      <trkpt lat="49.23019" lon="0.17799">
        <ele>133.28</ele>
        <time>2021-03-01T13:54:14Z</time>
      </trkpt>
      <trkpt lat="49.23019" lon="0.178">
        <ele>129.92</ele>
        <time>2021-03-01T13:54:15Z</time>
      </trkpt>
      <trkpt lat="49.23002" lon="0.17812">
        <ele>128.95</ele>
        <time>2021-03-01T13:54:30Z</time>
      </trkpt>
      <trkpt lat="49.22992" lon="0.17823">
        <ele>128.95</ele>
        <time>2021-03-01T13:54:44Z</time>
      </trkpt>
      <trkpt lat="49.22974" lon="0.17838">
        <ele>128.95</ele>
        <time>2021-03-01T13:54:59Z</time>
      </trkpt>
      <trkpt lat="49.22959" lon="0.17853">
        <ele>129.92</ele>
        <time>2021-03-01T13:55:16Z</time>
      </trkpt>
      <trkpt lat="49.22945" lon="0.17869">
        <ele>129.92</ele>
        <time>2021-03-01T13:55:32Z</time>
      </trkpt>
      <trkpt lat="49.22936" lon="0.17877">
        <ele>130.4</ele>
        <time>2021-03-01T13:55:42Z</time>
      </trkpt>
      <trkpt lat="49.22918" lon="0.17901">
        <ele>130.4</ele>
        <time>2021-03-01T13:55:57Z</time>
      </trkpt>
      <trkpt lat="49.22903" lon="0.17921">
        <ele>130.88</ele>
        <time>2021-03-01T13:56:15Z</time>
      </trkpt>
      <trkpt lat="49.22894" lon="0.17933">
        <ele>131.84</ele>
        <time>2021-03-01T13:56:29Z</time>
      </trkpt>
      <trkpt lat="49.2288" lon="0.17958">
        <ele>131.84</ele>
        <time>2021-03-01T13:56:46Z</time>
      </trkpt>
      <trkpt lat="49.22866" lon="0.17977">
        <ele>131.84</ele>
        <time>2021-03-01T13:57:04Z</time>
      </trkpt>
      <trkpt lat="49.22861" lon="0.17982">
        <ele>132.32</ele>
        <time>2021-03-01T13:57:10Z</time>
      </trkpt>
      <trkpt lat="49.22849" lon="0.17991">
        <ele>132.8</ele>
        <time>2021-03-01T13:57:23Z</time>
      </trkpt>
      <trkpt lat="49.22826" lon="0.18002">
        <ele>133.28</ele>
        <time>2021-03-01T13:57:44Z</time>
      </trkpt>
      <trkpt lat="49.2281" lon="0.18007">
        <ele>133.28</ele>
        <time>2021-03-01T13:58:00Z</time>
      </trkpt>
      <trkpt lat="49.22796" lon="0.18016">
        <ele>133.76</ele>
        <time>2021-03-01T13:58:14Z</time>
      </trkpt>
      <trkpt lat="49.22776" lon="0.18032">
        <ele>134.24</ele>
        <time>2021-03-01T13:58:34Z</time>
      </trkpt>
      <trkpt lat="49.22756" lon="0.18045">
        <ele>134.72</ele>
        <time>2021-03-01T13:58:52Z</time>
      </trkpt>
      <trkpt lat="49.22741" lon="0.18056">
        <ele>135.2</ele>
        <time>2021-03-01T13:59:07Z</time>
      </trkpt>
      <trkpt lat="49.22726" lon="0.1807">
        <ele>135.2</ele>
        <time>2021-03-01T13:59:23Z</time>
      </trkpt>
      <trkpt lat="49.22708" lon="0.18086">
        <ele>135.68</ele>
        <time>2021-03-01T13:59:39Z</time>
      </trkpt>
      <trkpt lat="49.22694" lon="0.181">
        <ele>136.64</ele>
        <time>2021-03-01T13:59:54Z</time>
      </trkpt>
      <trkpt lat="49.22679" lon="0.18115">
        <ele>137.13</ele>
        <time>2021-03-01T14:00:11Z</time>
      </trkpt>
      <trkpt lat="49.22664" lon="0.1813">
        <ele>137.61</ele>
        <time>2021-03-01T14:00:27Z</time>
      </trkpt>
      <trkpt lat="49.22652" lon="0.18144">
        <ele>137.61</ele>
        <time>2021-03-01T14:00:40Z</time>
      </trkpt>
      <trkpt lat="49.22637" lon="0.18161">
        <ele>138.09</ele>
        <time>2021-03-01T14:00:56Z</time>
      </trkpt>
      <trkpt lat="49.22618" lon="0.18179">
        <ele>138.09</ele>
        <time>2021-03-01T14:01:11Z</time>
      </trkpt>
      <trkpt lat="49.22596" lon="0.18203">
        <ele>138.09</ele>
        <time>2021-03-01T14:01:31Z</time>
      </trkpt>
      <trkpt lat="49.22574" lon="0.18225">
        <ele>138.57</ele>
        <time>2021-03-01T14:01:51Z</time>
      </trkpt>
      <trkpt lat="49.22554" lon="0.18248">
        <ele>138.57</ele>
        <time>2021-03-01T14:02:12Z</time>
      </trkpt>
      <trkpt lat="49.22531" lon="0.18271">
        <ele>139.05</ele>
        <time>2021-03-01T14:02:35Z</time>
      </trkpt>
      <trkpt lat="49.22507" lon="0.18296">
        <ele>139.05</ele>
        <time>2021-03-01T14:02:59Z</time>
      </trkpt>
      <trkpt lat="49.22483" lon="0.18321">
        <ele>139.05</ele>
        <time>2021-03-01T14:03:23Z</time>
      </trkpt>
      <trkpt lat="49.22461" lon="0.18343">
        <ele>139.05</ele>
        <time>2021-03-01T14:03:44Z</time>
      </trkpt>
      <trkpt lat="49.22438" lon="0.18365">
        <ele>139.53</ele>
        <time>2021-03-01T14:04:05Z</time>
      </trkpt>
      <trkpt lat="49.22413" lon="0.18394">
        <ele>139.53</ele>
        <time>2021-03-01T14:04:29Z</time>
      </trkpt>
      <trkpt lat="49.22391" lon="0.18418">
        <ele>139.53</ele>
        <time>2021-03-01T14:04:51Z</time>
      </trkpt>
      <trkpt lat="49.22379" lon="0.18433">
        <ele>140.01</ele>
        <time>2021-03-01T14:05:08Z</time>
      </trkpt>
      <trkpt lat="49.22368" lon="0.18449">
        <ele>140.49</ele>
        <time>2021-03-01T14:05:26Z</time>
      </trkpt>
      <trkpt lat="49.22351" lon="0.18481">
        <ele>140.49</ele>
        <time>2021-03-01T14:05:48Z</time>
      </trkpt>
      <trkpt lat="49.22332" lon="0.1851">
        <ele>140.49</ele>
        <time>2021-03-01T14:06:09Z</time>
      </trkpt>
      <trkpt lat="49.22312" lon="0.18538">
        <ele>140.49</ele>
        <time>2021-03-01T14:06:30Z</time>
      </trkpt>
      <trkpt lat="49.22284" lon="0.1857">
        <ele>140.97</ele>
        <time>2021-03-01T14:06:58Z</time>
      </trkpt>
      <trkpt lat="49.22263" lon="0.18594">
        <ele>140.97</ele>
        <time>2021-03-01T14:07:20Z</time>
      </trkpt>
      <trkpt lat="49.22241" lon="0.1862">
        <ele>140.97</ele>
        <time>2021-03-01T14:07:42Z</time>
      </trkpt>
      <trkpt lat="49.2223" lon="0.18634">
        <ele>140.97</ele>
        <time>2021-03-01T14:07:56Z</time>
      </trkpt>
      <trkpt lat="49.2221" lon="0.18659">
        <ele>141.45</ele>
        <time>2021-03-01T14:08:16Z</time>
      </trkpt>
      <trkpt lat="49.22196" lon="0.18678">
        <ele>141.45</ele>
        <time>2021-03-01T14:08:32Z</time>
      </trkpt>
      <trkpt lat="49.22179" lon="0.18708">
        <ele>141.45</ele>
        <time>2021-03-01T14:08:53Z</time>
      </trkpt>
      <trkpt lat="49.22172" lon="0.18724">
        <ele>141.93</ele>
        <time>2021-03-01T14:09:03Z</time>
      </trkpt>
      <trkpt lat="49.22161" lon="0.1876">
        <ele>141.93</ele>
        <time>2021-03-01T14:09:24Z</time>
      </trkpt>
      <trkpt lat="49.22164" lon="0.18783">
        <ele>141.93</ele>
        <time>2021-03-01T14:09:39Z</time>
      </trkpt>
      <trkpt lat="49.22183" lon="0.18772">
        <ele>142.41</ele>
        <time>2021-03-01T14:09:56Z</time>
      </trkpt>
      <trkpt lat="49.22204" lon="0.18753">
        <ele>142.41</ele>
        <time>2021-03-01T14:10:18Z</time>
      </trkpt>
      <trkpt lat="49.22225" lon="0.18737">
        <ele>140.97</ele>
        <time>2021-03-01T14:10:37Z</time>
      </trkpt>
      <trkpt lat="49.22244" lon="0.18724">
        <ele>140.97</ele>
        <time>2021-03-01T14:10:55Z</time>
      </trkpt>
      <trkpt lat="49.22262" lon="0.18711">
        <ele>140.49</ele>
        <time>2021-03-01T14:11:12Z</time>
      </trkpt>
      <trkpt lat="49.22285" lon="0.18697">
        <ele>140.01</ele>
        <time>2021-03-01T14:11:32Z</time>
      </trkpt>
      <trkpt lat="49.22303" lon="0.18686">
        <ele>140.01</ele>
        <time>2021-03-01T14:11:48Z</time>
      </trkpt>
      <trkpt lat="49.22323" lon="0.18671">
        <ele>139.53</ele>
        <time>2021-03-01T14:12:09Z</time>
      </trkpt>
      <trkpt lat="49.22341" lon="0.18658">
        <ele>139.53</ele>
        <time>2021-03-01T14:12:25Z</time>
      </trkpt>
      <trkpt lat="49.22347" lon="0.18656">
        <ele>139.05</ele>
        <time>2021-03-01T14:12:42Z</time>
      </trkpt>
      <trkpt lat="49.22348" lon="0.18657">
        <ele>139.05</ele>
        <time>2021-03-01T14:13:10Z</time>
      </trkpt>
      <trkpt lat="49.22347" lon="0.18657">
        <ele>138.57</ele>
        <time>2021-03-01T14:13:28Z</time>
      </trkpt>
      <trkpt lat="49.22345" lon="0.18657">
        <ele>138.57</ele>
        <time>2021-03-01T14:13:51Z</time>
      </trkpt>
      <trkpt lat="49.22344" lon="0.18657">
        <ele>138.57</ele>
        <time>2021-03-01T14:14:09Z</time>
      </trkpt>
      <trkpt lat="49.22352" lon="0.18649">
        <ele>138.57</ele>
        <time>2021-03-01T14:14:23Z</time>
      </trkpt>
      <trkpt lat="49.22368" lon="0.18639">
        <ele>138.57</ele>
        <time>2021-03-01T14:14:41Z</time>
      </trkpt>
      <trkpt lat="49.22384" lon="0.18628">
        <ele>138.57</ele>
        <time>2021-03-01T14:14:58Z</time>
      </trkpt>
      <trkpt lat="49.22399" lon="0.18619">
        <ele>138.57</ele>
        <time>2021-03-01T14:15:12Z</time>
      </trkpt>
      <trkpt lat="49.22408" lon="0.18612">
        <ele>138.57</ele>
        <time>2021-03-01T14:15:20Z</time>
      </trkpt>
      <trkpt lat="49.2241" lon="0.18611">
        <ele>138.57</ele>
        <time>2021-03-01T14:15:22Z</time>
      </trkpt>
      <trkpt lat="49.22424" lon="0.186">
        <ele>138.09</ele>
        <time>2021-03-01T14:15:37Z</time>
      </trkpt>
      <trkpt lat="49.22439" lon="0.18587">
        <ele>138.09</ele>
        <time>2021-03-01T14:15:51Z</time>
      </trkpt>
      <trkpt lat="49.22442" lon="0.18584">
        <ele>137.61</ele>
        <time>2021-03-01T14:15:54Z</time>
      </trkpt>
      <trkpt lat="49.2245" lon="0.18578">
        <ele>137.61</ele>
        <time>2021-03-01T14:16:03Z</time>
      </trkpt>
      <trkpt lat="49.22465" lon="0.1856">
        <ele>137.61</ele>
        <time>2021-03-01T14:16:17Z</time>
      </trkpt>
      <trkpt lat="49.22469" lon="0.18558">
        <ele>137.61</ele>
        <time>2021-03-01T14:16:21Z</time>
      </trkpt>
      <trkpt lat="49.22491" lon="0.18549">
        <ele>137.13</ele>
        <time>2021-03-01T14:16:39Z</time>
      </trkpt>
      <trkpt lat="49.22506" lon="0.18545">
        <ele>136.64</ele>
        <time>2021-03-01T14:16:52Z</time>
      </trkpt>
      <trkpt lat="49.22521" lon="0.18539">
        <ele>136.64</ele>
        <time>2021-03-01T14:17:05Z</time>
      </trkpt>
      <trkpt lat="49.22535" lon="0.18538">
        <ele>136.16</ele>
        <time>2021-03-01T14:17:19Z</time>
      </trkpt>
      <trkpt lat="49.22554" lon="0.18537">
        <ele>136.16</ele>
        <time>2021-03-01T14:17:33Z</time>
      </trkpt>
      <trkpt lat="49.22557" lon="0.18538">
        <ele>136.16</ele>
        <time>2021-03-01T14:17:35Z</time>
      </trkpt>
      <trkpt lat="49.22569" lon="0.18537">
        <ele>136.16</ele>
        <time>2021-03-01T14:17:45Z</time>
      </trkpt>
      <trkpt lat="49.22571" lon="0.18538">
        <ele>136.16</ele>
        <time>2021-03-01T14:17:47Z</time>
      </trkpt>
      <trkpt lat="49.22589" lon="0.1854">
        <ele>135.68</ele>
        <time>2021-03-01T14:18:03Z</time>
      </trkpt>
      <trkpt lat="49.22591" lon="0.1854">
        <ele>135.68</ele>
        <time>2021-03-01T14:18:06Z</time>
      </trkpt>
      <trkpt lat="49.22613" lon="0.18539">
        <ele>134.72</ele>
        <time>2021-03-01T14:18:25Z</time>
      </trkpt>
      <trkpt lat="49.22622" lon="0.18538">
        <ele>134.72</ele>
        <time>2021-03-01T14:18:31Z</time>
      </trkpt>
      <trkpt lat="49.22638" lon="0.1854">
        <ele>134.24</ele>
        <time>2021-03-01T14:18:47Z</time>
      </trkpt>
      <trkpt lat="49.22645" lon="0.18541">
        <ele>134.24</ele>
        <time>2021-03-01T14:19:00Z</time>
      </trkpt>
      <trkpt lat="49.22656" lon="0.18541">
        <ele>134.24</ele>
        <time>2021-03-01T14:19:08Z</time>
      </trkpt>
      <trkpt lat="49.2267" lon="0.18541">
        <ele>134.24</ele>
        <time>2021-03-01T14:19:21Z</time>
      </trkpt>
      <trkpt lat="49.22673" lon="0.18542">
        <ele>134.24</ele>
        <time>2021-03-01T14:19:25Z</time>
      </trkpt>
      <trkpt lat="49.22694" lon="0.1854">
        <ele>134.24</ele>
        <time>2021-03-01T14:19:37Z</time>
      </trkpt>
      <trkpt lat="49.22697" lon="0.18541">
        <ele>134.24</ele>
        <time>2021-03-01T14:19:40Z</time>
      </trkpt>
      <trkpt lat="49.22702" lon="0.18543">
        <ele>134.24</ele>
        <time>2021-03-01T14:19:45Z</time>
      </trkpt>
      <trkpt lat="49.22714" lon="0.18542">
        <ele>134.24</ele>
        <time>2021-03-01T14:19:58Z</time>
      </trkpt>
      <trkpt lat="49.22723" lon="0.18541">
        <ele>134.24</ele>
        <time>2021-03-01T14:20:07Z</time>
      </trkpt>
      <trkpt lat="49.22744" lon="0.18542">
        <ele>134.24</ele>
        <time>2021-03-01T14:20:21Z</time>
      </trkpt>
      <trkpt lat="49.22758" lon="0.18542">
        <ele>134.24</ele>
        <time>2021-03-01T14:20:35Z</time>
      </trkpt>
      <trkpt lat="49.22765" lon="0.18544">
        <ele>134.24</ele>
        <time>2021-03-01T14:20:51Z</time>
      </trkpt>
      <trkpt lat="49.22774" lon="0.18545">
        <ele>135.68</ele>
        <time>2021-03-01T14:20:59Z</time>
      </trkpt>
      <trkpt lat="49.22775" lon="0.18545">
        <ele>135.68</ele>
        <time>2021-03-01T14:21:00Z</time>
      </trkpt>
      <trkpt lat="49.22782" lon="0.18544">
        <ele>135.68</ele>
        <time>2021-03-01T14:21:04Z</time>
      </trkpt>
      <trkpt lat="49.2279" lon="0.18543">
        <ele>135.68</ele>
        <time>2021-03-01T14:21:08Z</time>
      </trkpt>
      <trkpt lat="49.2281" lon="0.18544">
        <ele>135.68</ele>
        <time>2021-03-01T14:21:24Z</time>
      </trkpt>
      <trkpt lat="49.22818" lon="0.18547">
        <ele>135.68</ele>
        <time>2021-03-01T14:21:32Z</time>
      </trkpt>
      <trkpt lat="49.22839" lon="0.18552">
        <ele>136.64</ele>
        <time>2021-03-01T14:21:49Z</time>
      </trkpt>
      <trkpt lat="49.22856" lon="0.1856">
        <ele>136.16</ele>
        <time>2021-03-01T14:22:04Z</time>
      </trkpt>
      <trkpt lat="49.22863" lon="0.1856">
        <ele>136.16</ele>
        <time>2021-03-01T14:22:11Z</time>
      </trkpt>
      <trkpt lat="49.22888" lon="0.18565">
        <ele>136.64</ele>
        <time>2021-03-01T14:22:29Z</time>
      </trkpt>
      <trkpt lat="49.22911" lon="0.18564">
        <ele>137.61</ele>
        <time>2021-03-01T14:22:46Z</time>
      </trkpt>
      <trkpt lat="49.22931" lon="0.18561">
        <ele>138.09</ele>
        <time>2021-03-01T14:23:03Z</time>
      </trkpt>
      <trkpt lat="49.22951" lon="0.18561">
        <ele>138.09</ele>
        <time>2021-03-01T14:23:20Z</time>
      </trkpt>
      <trkpt lat="49.22952" lon="0.18561">
        <ele>138.09</ele>
        <time>2021-03-01T14:23:22Z</time>
      </trkpt>
      <trkpt lat="49.22955" lon="0.18557">
        <ele>138.09</ele>
        <time>2021-03-01T14:23:29Z</time>
      </trkpt>
      <trkpt lat="49.2296" lon="0.18556">
        <ele>138.09</ele>
        <time>2021-03-01T14:23:34Z</time>
      </trkpt>
      <trkpt lat="49.22968" lon="0.18549">
        <ele>138.57</ele>
        <time>2021-03-01T14:23:44Z</time>
      </trkpt>
      <trkpt lat="49.22987" lon="0.18544">
        <ele>139.05</ele>
        <time>2021-03-01T14:24:00Z</time>
      </trkpt>
      <trkpt lat="49.23004" lon="0.18538">
        <ele>138.57</ele>
        <time>2021-03-01T14:24:15Z</time>
      </trkpt>
      <trkpt lat="49.23021" lon="0.1853">
        <ele>138.57</ele>
        <time>2021-03-01T14:24:31Z</time>
      </trkpt>
      <trkpt lat="49.23037" lon="0.18527">
        <ele>138.57</ele>
        <time>2021-03-01T14:24:43Z</time>
      </trkpt>
      <trkpt lat="49.23057" lon="0.18521">
        <ele>138.57</ele>
        <time>2021-03-01T14:24:58Z</time>
      </trkpt>
      <trkpt lat="49.23077" lon="0.18519">
        <ele>138.57</ele>
        <time>2021-03-01T14:25:12Z</time>
      </trkpt>
      <trkpt lat="49.23091" lon="0.18518">
        <ele>138.57</ele>
        <time>2021-03-01T14:25:24Z</time>
      </trkpt>
      <trkpt lat="49.23111" lon="0.18516">
        <ele>138.57</ele>
        <time>2021-03-01T14:25:41Z</time>
      </trkpt>
      <trkpt lat="49.23114" lon="0.18516">
        <ele>137.13</ele>
        <time>2021-03-01T14:25:44Z</time>
      </trkpt>
      <trkpt lat="49.23138" lon="0.18511">
        <ele>137.13</ele>
        <time>2021-03-01T14:26:02Z</time>
      </trkpt>
      <trkpt lat="49.23149" lon="0.18514">
        <ele>137.61</ele>
        <time>2021-03-01T14:26:15Z</time>
      </trkpt>
      <trkpt lat="49.2315" lon="0.18514">
        <ele>137.61</ele>
        <time>2021-03-01T14:26:16Z</time>
      </trkpt>
      <trkpt lat="49.23177" lon="0.18512">
        <ele>137.61</ele>
        <time>2021-03-01T14:26:32Z</time>
      </trkpt>
      <trkpt lat="49.23201" lon="0.18508">
        <ele>137.13</ele>
        <time>2021-03-01T14:26:50Z</time>
      </trkpt>
      <trkpt lat="49.23209" lon="0.18507">
        <ele>137.13</ele>
        <time>2021-03-01T14:26:55Z</time>
      </trkpt>
      <trkpt lat="49.23229" lon="0.18513">
        <ele>137.61</ele>
        <time>2021-03-01T14:27:12Z</time>
      </trkpt>
      <trkpt lat="49.23244" lon="0.18515">
        <ele>137.61</ele>
        <time>2021-03-01T14:27:22Z</time>
      </trkpt>
      <trkpt lat="49.23261" lon="0.18515">
        <ele>137.13</ele>
        <time>2021-03-01T14:27:36Z</time>
      </trkpt>
      <trkpt lat="49.23268" lon="0.18515">
        <ele>137.13</ele>
        <time>2021-03-01T14:27:42Z</time>
      </trkpt>
      <trkpt lat="49.23287" lon="0.18515">
        <ele>137.13</ele>
        <time>2021-03-01T14:27:58Z</time>
      </trkpt>
      <trkpt lat="49.233" lon="0.18517">
        <ele>136.16</ele>
        <time>2021-03-01T14:28:12Z</time>
      </trkpt>
      <trkpt lat="49.23327" lon="0.18515">
        <ele>136.16</ele>
        <time>2021-03-01T14:28:29Z</time>
      </trkpt>
      <trkpt lat="49.23325" lon="0.18541">
        <ele>136.16</ele>
        <time>2021-03-01T14:28:43Z</time>
      </trkpt>
      <trkpt lat="49.2332" lon="0.18568">
        <ele>134.72</ele>
        <time>2021-03-01T14:28:59Z</time>
      </trkpt>
      <trkpt lat="49.23317" lon="0.18595">
        <ele>133.76</ele>
        <time>2021-03-01T14:29:15Z</time>
      </trkpt>
      <trkpt lat="49.23317" lon="0.18596">
        <ele>133.76</ele>
        <time>2021-03-01T14:29:16Z</time>
      </trkpt>
      <trkpt lat="49.23312" lon="0.18623">
        <ele>133.28</ele>
        <time>2021-03-01T14:29:31Z</time>
      </trkpt>
      <trkpt lat="49.23305" lon="0.18653">
        <ele>131.84</ele>
        <time>2021-03-01T14:29:47Z</time>
      </trkpt>
      <trkpt lat="49.23305" lon="0.18671">
        <ele>130.4</ele>
        <time>2021-03-01T14:30:00Z</time>
      </trkpt>
      <trkpt lat="49.2331" lon="0.18699">
        <ele>129.43</ele>
        <time>2021-03-01T14:30:16Z</time>
      </trkpt>
      <trkpt lat="49.23323" lon="0.18701">
        <ele>129.43</ele>
        <time>2021-03-01T14:30:30Z</time>
      </trkpt>
      <trkpt lat="49.23335" lon="0.18704">
        <ele>129.43</ele>
        <time>2021-03-01T14:30:44Z</time>
      </trkpt>
      <trkpt lat="49.23349" lon="0.187">
        <ele>129.43</ele>
        <time>2021-03-01T14:31:00Z</time>
      </trkpt>
      <trkpt lat="49.23365" lon="0.18703">
        <ele>129.43</ele>
        <time>2021-03-01T14:31:14Z</time>
      </trkpt>
      <trkpt lat="49.23389" lon="0.187">
        <ele>130.88</ele>
        <time>2021-03-01T14:31:31Z</time>
      </trkpt>
      <trkpt lat="49.23405" lon="0.18696">
        <ele>130.88</ele>
        <time>2021-03-01T14:31:47Z</time>
      </trkpt>
      <trkpt lat="49.23419" lon="0.18697">
        <ele>131.36</ele>
        <time>2021-03-01T14:32:03Z</time>
      </trkpt>
      <trkpt lat="49.23437" lon="0.187">
        <ele>131.36</ele>
        <time>2021-03-01T14:32:19Z</time>
      </trkpt>
      <trkpt lat="49.23441" lon="0.18703">
        <ele>131.36</ele>
        <time>2021-03-01T14:32:26Z</time>
      </trkpt>
      <trkpt lat="49.2346" lon="0.18711">
        <ele>130.88</ele>
        <time>2021-03-01T14:32:41Z</time>
      </trkpt>
      <trkpt lat="49.23475" lon="0.18718">
        <ele>130.88</ele>
        <time>2021-03-01T14:32:54Z</time>
      </trkpt>
      <trkpt lat="49.23476" lon="0.18719">
        <ele>130.88</ele>
        <time>2021-03-01T14:32:55Z</time>
      </trkpt>
      <trkpt lat="49.23484" lon="0.18723">
        <ele>130.88</ele>
        <time>2021-03-01T14:33:00Z</time>
      </trkpt>
      <trkpt lat="49.23492" lon="0.18725">
        <ele>130.88</ele>
        <time>2021-03-01T14:33:06Z</time>
      </trkpt>
      <trkpt lat="49.23507" lon="0.18732">
        <ele>130.88</ele>
        <time>2021-03-01T14:33:19Z</time>
      </trkpt>
      <trkpt lat="49.23509" lon="0.18734">
        <ele>130.88</ele>
        <time>2021-03-01T14:33:22Z</time>
      </trkpt>
      <trkpt lat="49.2352" lon="0.18748">
        <ele>130.88</ele>
        <time>2021-03-01T14:33:36Z</time>
      </trkpt>
      <trkpt lat="49.23524" lon="0.18752">
        <ele>130.88</ele>
        <time>2021-03-01T14:33:42Z</time>
      </trkpt>
      <trkpt lat="49.23536" lon="0.18766">
        <ele>130.4</ele>
        <time>2021-03-01T14:33:56Z</time>
      </trkpt>
      <trkpt lat="49.23552" lon="0.18782">
        <ele>130.4</ele>
        <time>2021-03-01T14:34:10Z</time>
      </trkpt>
      <trkpt lat="49.23565" lon="0.18797">
        <ele>130.4</ele>
        <time>2021-03-01T14:34:22Z</time>
      </trkpt>
      <trkpt lat="49.2357" lon="0.18802">
        <ele>130.4</ele>
        <time>2021-03-01T14:34:27Z</time>
      </trkpt>
      <trkpt lat="49.23582" lon="0.18814">
        <ele>130.4</ele>
        <time>2021-03-01T14:34:40Z</time>
      </trkpt>
      <trkpt lat="49.23585" lon="0.18818">
        <ele>129.43</ele>
        <time>2021-03-01T14:34:45Z</time>
      </trkpt>
      <trkpt lat="49.23595" lon="0.18828">
        <ele>128.95</ele>
        <time>2021-03-01T14:34:57Z</time>
      </trkpt>
      <trkpt lat="49.236" lon="0.18836">
        <ele>128.95</ele>
        <time>2021-03-01T14:35:06Z</time>
      </trkpt>
      <trkpt lat="49.23611" lon="0.1885">
        <ele>128.95</ele>
        <time>2021-03-01T14:35:19Z</time>
      </trkpt>
      <trkpt lat="49.23623" lon="0.18865">
        <ele>128.47</ele>
        <time>2021-03-01T14:35:34Z</time>
      </trkpt>
      <trkpt lat="49.23639" lon="0.18881">
        <ele>127.99</ele>
        <time>2021-03-01T14:35:48Z</time>
      </trkpt>
      <trkpt lat="49.23653" lon="0.18894">
        <ele>127.51</ele>
        <time>2021-03-01T14:36:03Z</time>
      </trkpt>
      <trkpt lat="49.23659" lon="0.18903">
        <ele>126.55</ele>
        <time>2021-03-01T14:36:15Z</time>
      </trkpt>
      <trkpt lat="49.23675" lon="0.18914">
        <ele>126.55</ele>
        <time>2021-03-01T14:36:28Z</time>
      </trkpt>
      <trkpt lat="49.23691" lon="0.18922">
        <ele>125.59</ele>
        <time>2021-03-01T14:36:40Z</time>
      </trkpt>
      <trkpt lat="49.23703" lon="0.18929">
        <ele>125.59</ele>
        <time>2021-03-01T14:36:51Z</time>
      </trkpt>
      <trkpt lat="49.23716" lon="0.1894">
        <ele>125.11</ele>
        <time>2021-03-01T14:37:05Z</time>
      </trkpt>
      <trkpt lat="49.23731" lon="0.18955">
        <ele>123.67</ele>
        <time>2021-03-01T14:37:21Z</time>
      </trkpt>
      <trkpt lat="49.23733" lon="0.18957">
        <ele>123.67</ele>
        <time>2021-03-01T14:37:23Z</time>
      </trkpt>
      <trkpt lat="49.23736" lon="0.18958">
        <ele>123.67</ele>
        <time>2021-03-01T14:37:25Z</time>
      </trkpt>
      <trkpt lat="49.23743" lon="0.18965">
        <ele>123.67</ele>
        <time>2021-03-01T14:37:31Z</time>
      </trkpt>
      <trkpt lat="49.23765" lon="0.18976">
        <ele>123.19</ele>
        <time>2021-03-01T14:37:47Z</time>
      </trkpt>
      <trkpt lat="49.23781" lon="0.18984">
        <ele>122.71</ele>
        <time>2021-03-01T14:38:00Z</time>
      </trkpt>
      <trkpt lat="49.238" lon="0.18993">
        <ele>122.71</ele>
        <time>2021-03-01T14:38:14Z</time>
      </trkpt>
      <trkpt lat="49.2381" lon="0.18999">
        <ele>121.74</ele>
        <time>2021-03-01T14:38:28Z</time>
      </trkpt>
      <trkpt lat="49.23819" lon="0.19006">
        <ele>121.26</ele>
        <time>2021-03-01T14:38:41Z</time>
      </trkpt>
      <trkpt lat="49.23829" lon="0.19011">
        <ele>120.78</ele>
        <time>2021-03-01T14:38:53Z</time>
      </trkpt>
      <trkpt lat="49.23847" lon="0.19021">
        <ele>120.78</ele>
        <time>2021-03-01T14:39:09Z</time>
      </trkpt>
      <trkpt lat="49.23852" lon="0.19026">
        <ele>120.78</ele>
        <time>2021-03-01T14:39:18Z</time>
      </trkpt>
      <trkpt lat="49.23858" lon="0.19031">
        <ele>120.78</ele>
        <time>2021-03-01T14:39:26Z</time>
      </trkpt>
      <trkpt lat="49.23871" lon="0.19039">
        <ele>122.22</ele>
        <time>2021-03-01T14:39:40Z</time>
      </trkpt>
      <trkpt lat="49.2388" lon="0.19045">
        <ele>122.71</ele>
        <time>2021-03-01T14:39:52Z</time>
      </trkpt>
      <trkpt lat="49.23895" lon="0.1905">
        <ele>123.67</ele>
        <time>2021-03-01T14:40:09Z</time>
      </trkpt>
      <trkpt lat="49.23909" lon="0.19057">
        <ele>124.15</ele>
        <time>2021-03-01T14:40:20Z</time>
      </trkpt>
      <trkpt lat="49.23927" lon="0.19061">
        <ele>124.15</ele>
        <time>2021-03-01T14:40:35Z</time>
      </trkpt>
      <trkpt lat="49.23931" lon="0.19061">
        <ele>124.15</ele>
        <time>2021-03-01T14:40:39Z</time>
      </trkpt>
      <trkpt lat="49.2395" lon="0.19062">
        <ele>124.63</ele>
        <time>2021-03-01T14:40:56Z</time>
      </trkpt>
      <trkpt lat="49.23955" lon="0.19064">
        <ele>124.63</ele>
        <time>2021-03-01T14:41:00Z</time>
      </trkpt>
      <trkpt lat="49.23969" lon="0.19069">
        <ele>125.11</ele>
        <time>2021-03-01T14:41:14Z</time>
      </trkpt>
      <trkpt lat="49.23986" lon="0.19075">
        <ele>125.59</ele>
        <time>2021-03-01T14:41:29Z</time>
      </trkpt>
      <trkpt lat="49.23993" lon="0.19076">
        <ele>126.07</ele>
        <time>2021-03-01T14:41:37Z</time>
      </trkpt>
      <trkpt lat="49.23995" lon="0.19076">
        <ele>126.07</ele>
        <time>2021-03-01T14:41:39Z</time>
      </trkpt>
      <trkpt lat="49.24012" lon="0.1908">
        <ele>127.03</ele>
        <time>2021-03-01T14:41:54Z</time>
      </trkpt>
      <trkpt lat="49.24021" lon="0.19084">
        <ele>127.51</ele>
        <time>2021-03-01T14:42:01Z</time>
      </trkpt>
      <trkpt lat="49.24039" lon="0.19096">
        <ele>127.99</ele>
        <time>2021-03-01T14:42:18Z</time>
      </trkpt>
      <trkpt lat="49.24057" lon="0.19106">
        <ele>128.47</ele>
        <time>2021-03-01T14:42:34Z</time>
      </trkpt>
      <trkpt lat="49.24061" lon="0.19109">
        <ele>128.95</ele>
        <time>2021-03-01T14:42:45Z</time>
      </trkpt>
      <trkpt lat="49.24072" lon="0.19118">
        <ele>128.95</ele>
        <time>2021-03-01T14:42:57Z</time>
      </trkpt>
      <trkpt lat="49.24087" lon="0.19126">
        <ele>129.43</ele>
        <time>2021-03-01T14:43:10Z</time>
      </trkpt>
      <trkpt lat="49.24104" lon="0.19136">
        <ele>129.43</ele>
        <time>2021-03-01T14:43:25Z</time>
      </trkpt>
      <trkpt lat="49.24106" lon="0.19136">
        <ele>129.92</ele>
        <time>2021-03-01T14:43:27Z</time>
      </trkpt>
      <trkpt lat="49.24123" lon="0.19139">
        <ele>129.92</ele>
        <time>2021-03-01T14:43:43Z</time>
      </trkpt>
      <trkpt lat="49.24146" lon="0.19146">
        <ele>130.4</ele>
        <time>2021-03-01T14:43:58Z</time>
      </trkpt>
      <trkpt lat="49.24151" lon="0.19151">
        <ele>130.4</ele>
        <time>2021-03-01T14:44:02Z</time>
      </trkpt>
      <trkpt lat="49.24153" lon="0.19161">
        <ele>130.4</ele>
        <time>2021-03-01T14:44:07Z</time>
      </trkpt>
      <trkpt lat="49.24147" lon="0.19178">
        <ele>130.4</ele>
        <time>2021-03-01T14:44:18Z</time>
      </trkpt>
      <trkpt lat="49.24139" lon="0.19205">
        <ele>130.4</ele>
        <time>2021-03-01T14:44:34Z</time>
      </trkpt>
      <trkpt lat="49.2413" lon="0.19231">
        <ele>128.95</ele>
        <time>2021-03-01T14:44:49Z</time>
      </trkpt>
      <trkpt lat="49.24119" lon="0.19253">
        <ele>128.95</ele>
        <time>2021-03-01T14:45:04Z</time>
      </trkpt>
      <trkpt lat="49.24105" lon="0.19279">
        <ele>128.47</ele>
        <time>2021-03-01T14:45:20Z</time>
      </trkpt>
      <trkpt lat="49.24093" lon="0.19303">
        <ele>126.55</ele>
        <time>2021-03-01T14:45:37Z</time>
      </trkpt>
      <trkpt lat="49.24085" lon="0.19336">
        <ele>124.15</ele>
        <time>2021-03-01T14:45:53Z</time>
      </trkpt>
      <trkpt lat="49.24084" lon="0.19352">
        <ele>123.19</ele>
        <time>2021-03-01T14:46:04Z</time>
      </trkpt>
      <trkpt lat="49.24079" lon="0.19379">
        <ele>121.26</ele>
        <time>2021-03-01T14:46:23Z</time>
      </trkpt>
      <trkpt lat="49.24078" lon="0.19409">
        <ele>120.3</ele>
        <time>2021-03-01T14:46:37Z</time>
      </trkpt>
      <trkpt lat="49.24075" lon="0.19436">
        <ele>117.42</ele>
        <time>2021-03-01T14:46:55Z</time>
      </trkpt>
      <trkpt lat="49.24073" lon="0.19465">
        <ele>116.46</ele>
        <time>2021-03-01T14:47:11Z</time>
      </trkpt>
      <trkpt lat="49.24064" lon="0.19498">
        <ele>114.05</ele>
        <time>2021-03-01T14:47:30Z</time>
      </trkpt>
      <trkpt lat="49.24054" lon="0.1953">
        <ele>110.69</ele>
        <time>2021-03-01T14:47:50Z</time>
      </trkpt>
      <trkpt lat="49.24059" lon="0.19537">
        <ele>111.65</ele>
        <time>2021-03-01T14:47:59Z</time>
      </trkpt>
      <trkpt lat="49.24067" lon="0.19537">
        <ele>114.05</ele>
        <time>2021-03-01T14:48:12Z</time>
      </trkpt>
      <trkpt lat="49.24082" lon="0.19536">
        <ele>115.98</ele>
        <time>2021-03-01T14:48:25Z</time>
      </trkpt>
      <trkpt lat="49.24088" lon="0.19535">
        <ele>116.46</ele>
        <time>2021-03-01T14:48:30Z</time>
      </trkpt>
      <trkpt lat="49.24094" lon="0.19534">
        <ele>118.38</ele>
        <time>2021-03-01T14:48:40Z</time>
      </trkpt>
      <trkpt lat="49.24101" lon="0.19532">
        <ele>119.82</ele>
        <time>2021-03-01T14:48:51Z</time>
      </trkpt>
      <trkpt lat="49.2411" lon="0.19533">
        <ele>121.26</ele>
        <time>2021-03-01T14:49:04Z</time>
      </trkpt>
      <trkpt lat="49.24113" lon="0.19531">
        <ele>121.74</ele>
        <time>2021-03-01T14:49:08Z</time>
      </trkpt>
      <trkpt lat="49.24124" lon="0.19528">
        <ele>123.67</ele>
        <time>2021-03-01T14:49:22Z</time>
      </trkpt>
      <trkpt lat="49.24125" lon="0.19527">
        <ele>123.67</ele>
        <time>2021-03-01T14:49:25Z</time>
      </trkpt>
      <trkpt lat="49.24138" lon="0.19521">
        <ele>125.11</ele>
        <time>2021-03-01T14:49:37Z</time>
      </trkpt>
      <trkpt lat="49.24143" lon="0.19522">
        <ele>125.11</ele>
        <time>2021-03-01T14:49:41Z</time>
      </trkpt>
      <trkpt lat="49.2415" lon="0.19523">
        <ele>126.07</ele>
        <time>2021-03-01T14:49:47Z</time>
      </trkpt>
      <trkpt lat="49.24164" lon="0.19527">
        <ele>127.03</ele>
        <time>2021-03-01T14:50:00Z</time>
      </trkpt>
      <trkpt lat="49.24174" lon="0.19534">
        <ele>127.51</ele>
        <time>2021-03-01T14:50:08Z</time>
      </trkpt>
      <trkpt lat="49.2419" lon="0.1954">
        <ele>127.99</ele>
        <time>2021-03-01T14:50:23Z</time>
      </trkpt>
      <trkpt lat="49.24209" lon="0.19545">
        <ele>128.47</ele>
        <time>2021-03-01T14:50:40Z</time>
      </trkpt>
      <trkpt lat="49.24222" lon="0.19543">
        <ele>128.95</ele>
        <time>2021-03-01T14:50:53Z</time>
      </trkpt>
      <trkpt lat="49.24239" lon="0.19541">
        <ele>129.43</ele>
        <time>2021-03-01T14:51:07Z</time>
      </trkpt>
      <trkpt lat="49.24261" lon="0.19543">
        <ele>129.43</ele>
        <time>2021-03-01T14:51:25Z</time>
      </trkpt>
      <trkpt lat="49.24289" lon="0.19545">
        <ele>129.92</ele>
        <time>2021-03-01T14:51:42Z</time>
      </trkpt>
      <trkpt lat="49.24296" lon="0.19548">
        <ele>129.92</ele>
        <time>2021-03-01T14:51:48Z</time>
      </trkpt>
      <trkpt lat="49.24302" lon="0.19558">
        <ele>129.92</ele>
        <time>2021-03-01T14:51:56Z</time>
      </trkpt>
      <trkpt lat="49.24312" lon="0.19562">
        <ele>129.92</ele>
        <time>2021-03-01T14:52:10Z</time>
      </trkpt>
      <trkpt lat="49.24317" lon="0.1956">
        <ele>129.92</ele>
        <time>2021-03-01T14:52:14Z</time>
      </trkpt>
      <trkpt lat="49.24329" lon="0.19556">
        <ele>129.92</ele>
        <time>2021-03-01T14:52:26Z</time>
      </trkpt>
      <trkpt lat="49.24336" lon="0.19552">
        <ele>129.92</ele>
        <time>2021-03-01T14:52:32Z</time>
      </trkpt>
      <trkpt lat="49.24352" lon="0.19546">
        <ele>129.92</ele>
        <time>2021-03-01T14:52:45Z</time>
      </trkpt>
      <trkpt lat="49.24353" lon="0.19546">
        <ele>129.92</ele>
        <time>2021-03-01T14:52:48Z</time>
      </trkpt>
      <trkpt lat="49.2437" lon="0.19537">
        <ele>129.92</ele>
        <time>2021-03-01T14:53:01Z</time>
      </trkpt>
      <trkpt lat="49.24382" lon="0.19529">
        <ele>129.92</ele>
        <time>2021-03-01T14:53:15Z</time>
      </trkpt>
      <trkpt lat="49.24397" lon="0.19521">
        <ele>128.47</ele>
        <time>2021-03-01T14:53:28Z</time>
      </trkpt>
      <trkpt lat="49.24403" lon="0.19517">
        <ele>128.47</ele>
        <time>2021-03-01T14:53:33Z</time>
      </trkpt>
      <trkpt lat="49.2441" lon="0.1951">
        <ele>128.47</ele>
        <time>2021-03-01T14:53:40Z</time>
      </trkpt>
      <trkpt lat="49.24422" lon="0.19509">
        <ele>128.47</ele>
        <time>2021-03-01T14:53:49Z</time>
      </trkpt>
      <trkpt lat="49.24429" lon="0.19513">
        <ele>127.99</ele>
        <time>2021-03-01T14:53:54Z</time>
      </trkpt>
      <trkpt lat="49.24443" lon="0.19523">
        <ele>127.51</ele>
        <time>2021-03-01T14:54:10Z</time>
      </trkpt>
      <trkpt lat="49.2445" lon="0.19527">
        <ele>127.51</ele>
        <time>2021-03-01T14:54:16Z</time>
      </trkpt>
      <trkpt lat="49.24469" lon="0.19538">
        <ele>127.03</ele>
        <time>2021-03-01T14:54:32Z</time>
      </trkpt>
      <trkpt lat="49.24486" lon="0.19546">
        <ele>126.07</ele>
        <time>2021-03-01T14:54:45Z</time>
      </trkpt>
      <trkpt lat="49.24494" lon="0.19547">
        <ele>126.07</ele>
        <time>2021-03-01T14:54:54Z</time>
      </trkpt>
      <trkpt lat="49.24513" lon="0.19554">
        <ele>125.11</ele>
        <time>2021-03-01T14:55:12Z</time>
      </trkpt>
      <trkpt lat="49.2453" lon="0.19557">
        <ele>125.11</ele>
        <time>2021-03-01T14:55:25Z</time>
      </trkpt>
      <trkpt lat="49.24537" lon="0.19566">
        <ele>124.63</ele>
        <time>2021-03-01T14:55:36Z</time>
      </trkpt>
      <trkpt lat="49.24546" lon="0.19573">
        <ele>124.15</ele>
        <time>2021-03-01T14:55:44Z</time>
      </trkpt>
      <trkpt lat="49.2455" lon="0.19575">
        <ele>123.67</ele>
        <time>2021-03-01T14:55:47Z</time>
      </trkpt>
      <trkpt lat="49.24569" lon="0.19596">
        <ele>123.19</ele>
        <time>2021-03-01T14:56:07Z</time>
      </trkpt>
      <trkpt lat="49.24578" lon="0.19616">
        <ele>122.71</ele>
        <time>2021-03-01T14:56:24Z</time>
      </trkpt>
      <trkpt lat="49.24593" lon="0.19636">
        <ele>122.22</ele>
        <time>2021-03-01T14:56:38Z</time>
      </trkpt>
      <trkpt lat="49.24604" lon="0.19648">
        <ele>121.74</ele>
        <time>2021-03-01T14:56:49Z</time>
      </trkpt>
      <trkpt lat="49.24612" lon="0.19663">
        <ele>120.78</ele>
        <time>2021-03-01T14:57:02Z</time>
      </trkpt>
      <trkpt lat="49.24617" lon="0.19667">
        <ele>120.78</ele>
        <time>2021-03-01T14:57:06Z</time>
      </trkpt>
      <trkpt lat="49.24635" lon="0.19679">
        <ele>119.82</ele>
        <time>2021-03-01T14:57:20Z</time>
      </trkpt>
      <trkpt lat="49.24648" lon="0.19697">
        <ele>118.38</ele>
        <time>2021-03-01T14:57:34Z</time>
      </trkpt>
      <trkpt lat="49.24659" lon="0.19713">
        <ele>117.42</ele>
        <time>2021-03-01T14:57:48Z</time>
      </trkpt>
      <trkpt lat="49.24673" lon="0.19727">
        <ele>115.98</ele>
        <time>2021-03-01T14:58:02Z</time>
      </trkpt>
      <trkpt lat="49.24685" lon="0.19747">
        <ele>115.01</ele>
        <time>2021-03-01T14:58:17Z</time>
      </trkpt>
      <trkpt lat="49.24696" lon="0.19758">
        <ele>114.53</ele>
        <time>2021-03-01T14:58:31Z</time>
      </trkpt>
      <trkpt lat="49.24697" lon="0.19762">
        <ele>114.53</ele>
        <time>2021-03-01T14:58:34Z</time>
      </trkpt>
      <trkpt lat="49.24705" lon="0.19772">
        <ele>113.57</ele>
        <time>2021-03-01T14:58:51Z</time>
      </trkpt>
      <trkpt lat="49.24714" lon="0.19776">
        <ele>113.57</ele>
        <time>2021-03-01T14:59:06Z</time>
      </trkpt>
      <trkpt lat="49.2472" lon="0.19764">
        <ele>113.09</ele>
        <time>2021-03-01T14:59:14Z</time>
      </trkpt>
      <trkpt lat="49.2473" lon="0.19756">
        <ele>113.09</ele>
        <time>2021-03-01T14:59:24Z</time>
      </trkpt>
      <trkpt lat="49.24746" lon="0.19744">
        <ele>113.09</ele>
        <time>2021-03-01T14:59:38Z</time>
      </trkpt>
      <trkpt lat="49.24747" lon="0.19743">
        <ele>113.09</ele>
        <time>2021-03-01T14:59:39Z</time>
      </trkpt>
      <trkpt lat="49.24764" lon="0.19739">
        <ele>113.09</ele>
        <time>2021-03-01T14:59:55Z</time>
      </trkpt>
      <trkpt lat="49.24773" lon="0.19738">
        <ele>114.05</ele>
        <time>2021-03-01T15:00:03Z</time>
      </trkpt>
      <trkpt lat="49.24784" lon="0.19746">
        <ele>114.05</ele>
        <time>2021-03-01T15:00:18Z</time>
      </trkpt>
      <trkpt lat="49.24792" lon="0.19754">
        <ele>114.05</ele>
        <time>2021-03-01T15:00:25Z</time>
      </trkpt>
      <trkpt lat="49.24797" lon="0.1976">
        <ele>113.09</ele>
        <time>2021-03-01T15:00:30Z</time>
      </trkpt>
      <trkpt lat="49.24821" lon="0.19771">
        <ele>112.61</ele>
        <time>2021-03-01T15:00:46Z</time>
      </trkpt>
      <trkpt lat="49.24828" lon="0.19771">
        <ele>112.13</ele>
        <time>2021-03-01T15:00:59Z</time>
      </trkpt>
      <trkpt lat="49.24831" lon="0.19776">
        <ele>111.65</ele>
        <time>2021-03-01T15:01:13Z</time>
      </trkpt>
      <trkpt lat="49.2483" lon="0.19776">
        <ele>111.65</ele>
        <time>2021-03-01T15:01:33Z</time>
      </trkpt>
      <trkpt lat="49.24827" lon="0.19774">
        <ele>111.65</ele>
        <time>2021-03-01T15:01:51Z</time>
      </trkpt>
      <trkpt lat="49.24827" lon="0.19776">
        <ele>111.65</ele>
        <time>2021-03-01T15:02:08Z</time>
      </trkpt>
      <trkpt lat="49.24827" lon="0.19776">
        <ele>111.65</ele>
        <time>2021-03-01T15:02:24Z</time>
      </trkpt>
      <trkpt lat="49.24829" lon="0.19776">
        <ele>111.65</ele>
        <time>2021-03-01T15:02:39Z</time>
      </trkpt>
      <trkpt lat="49.24831" lon="0.19775">
        <ele>111.65</ele>
        <time>2021-03-01T15:02:59Z</time>
      </trkpt>
      <trkpt lat="49.24833" lon="0.19776">
        <ele>111.65</ele>
        <time>2021-03-01T15:03:24Z</time>
      </trkpt>
      <trkpt lat="49.24834" lon="0.19775">
        <ele>113.09</ele>
        <time>2021-03-01T15:03:35Z</time>
      </trkpt>
      <trkpt lat="49.24836" lon="0.19774">
        <ele>113.09</ele>
        <time>2021-03-01T15:04:00Z</time>
      </trkpt>
      <trkpt lat="49.24839" lon="0.19775">
        <ele>113.09</ele>
        <time>2021-03-01T15:04:26Z</time>
      </trkpt>
      <trkpt lat="49.2484" lon="0.1978">
        <ele>113.57</ele>
        <time>2021-03-01T15:04:42Z</time>
      </trkpt>
      <trkpt lat="49.24849" lon="0.19783">
        <ele>112.61</ele>
        <time>2021-03-01T15:04:52Z</time>
      </trkpt>
      <trkpt lat="49.24863" lon="0.1979">
        <ele>112.61</ele>
        <time>2021-03-01T15:05:06Z</time>
      </trkpt>
      <trkpt lat="49.2488" lon="0.198">
        <ele>111.65</ele>
        <time>2021-03-01T15:05:22Z</time>
      </trkpt>
      <trkpt lat="49.24884" lon="0.19803">
        <ele>111.65</ele>
        <time>2021-03-01T15:05:25Z</time>
      </trkpt>
      <trkpt lat="49.24902" lon="0.19813">
        <ele>110.69</ele>
        <time>2021-03-01T15:05:39Z</time>
      </trkpt>
      <trkpt lat="49.24917" lon="0.19824">
        <ele>110.21</ele>
        <time>2021-03-01T15:05:55Z</time>
      </trkpt>
      <trkpt lat="49.24934" lon="0.19843">
        <ele>109.73</ele>
        <time>2021-03-01T15:06:15Z</time>
      </trkpt>
      <trkpt lat="49.24945" lon="0.19857">
        <ele>109.25</ele>
        <time>2021-03-01T15:06:28Z</time>
      </trkpt>
      <trkpt lat="49.24951" lon="0.19864">
        <ele>109.25</ele>
        <time>2021-03-01T15:06:33Z</time>
      </trkpt>
      <trkpt lat="49.24962" lon="0.1987">
        <ele>109.25</ele>
        <time>2021-03-01T15:06:41Z</time>
      </trkpt>
      <trkpt lat="49.24984" lon="0.19881">
        <ele>109.25</ele>
        <time>2021-03-01T15:06:57Z</time>
      </trkpt>
      <trkpt lat="49.25" lon="0.19888">
        <ele>109.25</ele>
        <time>2021-03-01T15:07:14Z</time>
      </trkpt>
      <trkpt lat="49.25024" lon="0.19894">
        <ele>110.69</ele>
        <time>2021-03-01T15:07:29Z</time>
      </trkpt>
      <trkpt lat="49.25025" lon="0.19894">
        <ele>110.69</ele>
        <time>2021-03-01T15:07:30Z</time>
      </trkpt>
      <trkpt lat="49.25037" lon="0.19895">
        <ele>110.69</ele>
        <time>2021-03-01T15:07:42Z</time>
      </trkpt>
      <trkpt lat="49.25042" lon="0.19896">
        <ele>110.69</ele>
        <time>2021-03-01T15:07:46Z</time>
      </trkpt>
      <trkpt lat="49.25048" lon="0.19893">
        <ele>111.17</ele>
        <time>2021-03-01T15:07:52Z</time>
      </trkpt>
      <trkpt lat="49.25064" lon="0.19885">
        <ele>111.65</ele>
        <time>2021-03-01T15:08:06Z</time>
      </trkpt>
      <trkpt lat="49.2508" lon="0.19877">
        <ele>112.13</ele>
        <time>2021-03-01T15:08:20Z</time>
      </trkpt>
      <trkpt lat="49.25095" lon="0.19876">
        <ele>112.13</ele>
        <time>2021-03-01T15:08:35Z</time>
      </trkpt>
      <trkpt lat="49.25117" lon="0.19867">
        <ele>112.13</ele>
        <time>2021-03-01T15:08:51Z</time>
      </trkpt>
      <trkpt lat="49.25135" lon="0.19865">
        <ele>112.13</ele>
        <time>2021-03-01T15:09:05Z</time>
      </trkpt>
      <trkpt lat="49.25151" lon="0.19863">
        <ele>112.13</ele>
        <time>2021-03-01T15:09:20Z</time>
      </trkpt>
      <trkpt lat="49.2517" lon="0.19866">
        <ele>112.13</ele>
        <time>2021-03-01T15:09:36Z</time>
      </trkpt>
      <trkpt lat="49.25181" lon="0.19864">
        <ele>112.13</ele>
        <time>2021-03-01T15:09:48Z</time>
      </trkpt>
      <trkpt lat="49.25191" lon="0.19854">
        <ele>111.65</ele>
        <time>2021-03-01T15:10:00Z</time>
      </trkpt>
      <trkpt lat="49.25201" lon="0.19842">
        <ele>111.65</ele>
        <time>2021-03-01T15:10:14Z</time>
      </trkpt>
      <trkpt lat="49.25226" lon="0.19833">
        <ele>111.65</ele>
        <time>2021-03-01T15:10:30Z</time>
      </trkpt>
      <trkpt lat="49.25243" lon="0.19828">
        <ele>110.69</ele>
        <time>2021-03-01T15:10:43Z</time>
      </trkpt>
      <trkpt lat="49.25262" lon="0.19824">
        <ele>109.73</ele>
        <time>2021-03-01T15:11:00Z</time>
      </trkpt>
      <trkpt lat="49.25278" lon="0.19825">
        <ele>108.77</ele>
        <time>2021-03-01T15:11:17Z</time>
      </trkpt>
      <trkpt lat="49.25296" lon="0.19827">
        <ele>106.36</ele>
        <time>2021-03-01T15:11:32Z</time>
      </trkpt>
      <trkpt lat="49.25311" lon="0.19838">
        <ele>104.92</ele>
        <time>2021-03-01T15:11:46Z</time>
      </trkpt>
      <trkpt lat="49.25324" lon="0.19851">
        <ele>103</ele>
        <time>2021-03-01T15:12:01Z</time>
      </trkpt>
      <trkpt lat="49.25334" lon="0.19859">
        <ele>101.56</ele>
        <time>2021-03-01T15:12:18Z</time>
      </trkpt>
      <trkpt lat="49.25346" lon="0.19872">
        <ele>99.15</ele>
        <time>2021-03-01T15:12:35Z</time>
      </trkpt>
      <trkpt lat="49.25355" lon="0.19876">
        <ele>96.27</ele>
        <time>2021-03-01T15:12:49Z</time>
      </trkpt>
      <trkpt lat="49.25363" lon="0.19882">
        <ele>94.35</ele>
        <time>2021-03-01T15:13:04Z</time>
      </trkpt>
      <trkpt lat="49.25374" lon="0.19891">
        <ele>90.98</ele>
        <time>2021-03-01T15:13:21Z</time>
      </trkpt>
      <trkpt lat="49.25382" lon="0.199">
        <ele>88.58</ele>
        <time>2021-03-01T15:13:37Z</time>
      </trkpt>
      <trkpt lat="49.25391" lon="0.19904">
        <ele>86.18</ele>
        <time>2021-03-01T15:13:55Z</time>
      </trkpt>
      <trkpt lat="49.254" lon="0.19903">
        <ele>83.77</ele>
        <time>2021-03-01T15:14:10Z</time>
      </trkpt>
      <trkpt lat="49.25408" lon="0.19902">
        <ele>81.37</ele>
        <time>2021-03-01T15:14:26Z</time>
      </trkpt>
      <trkpt lat="49.25414" lon="0.19901">
        <ele>78.97</ele>
        <time>2021-03-01T15:14:41Z</time>
      </trkpt>
      <trkpt lat="49.2542" lon="0.19901">
        <ele>77.04</ele>
        <time>2021-03-01T15:14:56Z</time>
      </trkpt>
      <trkpt lat="49.25427" lon="0.19902">
        <ele>74.16</ele>
        <time>2021-03-01T15:15:10Z</time>
      </trkpt>
      <trkpt lat="49.25434" lon="0.19905">
        <ele>72.72</ele>
        <time>2021-03-01T15:15:26Z</time>
      </trkpt>
      <trkpt lat="49.25442" lon="0.19923">
        <ele>70.31</ele>
        <time>2021-03-01T15:15:42Z</time>
      </trkpt>
      <trkpt lat="49.25445" lon="0.19932">
        <ele>68.39</ele>
        <time>2021-03-01T15:15:55Z</time>
      </trkpt>
      <trkpt lat="49.25447" lon="0.19947">
        <ele>66.95</ele>
        <time>2021-03-01T15:16:09Z</time>
      </trkpt>
      <trkpt lat="49.25455" lon="0.19968">
        <ele>65.03</ele>
        <time>2021-03-01T15:16:26Z</time>
      </trkpt>
      <trkpt lat="49.25467" lon="0.19968">
        <ele>63.58</ele>
        <time>2021-03-01T15:16:39Z</time>
      </trkpt>
      <trkpt lat="49.25485" lon="0.19964">
        <ele>61.66</ele>
        <time>2021-03-01T15:16:56Z</time>
      </trkpt>
      <trkpt lat="49.25496" lon="0.19961">
        <ele>60.7</ele>
        <time>2021-03-01T15:17:07Z</time>
      </trkpt>
      <trkpt lat="49.25514" lon="0.19963">
        <ele>58.78</ele>
        <time>2021-03-01T15:17:22Z</time>
      </trkpt>
      <trkpt lat="49.25529" lon="0.19966">
        <ele>57.82</ele>
        <time>2021-03-01T15:17:36Z</time>
      </trkpt>
      <trkpt lat="49.25537" lon="0.19963">
        <ele>56.86</ele>
        <time>2021-03-01T15:17:49Z</time>
      </trkpt>
      <trkpt lat="49.25538" lon="0.19962">
        <ele>56.86</ele>
        <time>2021-03-01T15:17:53Z</time>
      </trkpt>
      <trkpt lat="49.25545" lon="0.1996">
        <ele>55.89</ele>
        <time>2021-03-01T15:18:01Z</time>
      </trkpt>
      <trkpt lat="49.25558" lon="0.19951">
        <ele>55.41</ele>
        <time>2021-03-01T15:18:17Z</time>
      </trkpt>
      <trkpt lat="49.25562" lon="0.19952">
        <ele>54.93</ele>
        <time>2021-03-01T15:18:40Z</time>
      </trkpt>
      <trkpt lat="49.25563" lon="0.19954">
        <ele>54.93</ele>
        <time>2021-03-01T15:18:58Z</time>
      </trkpt>
      <trkpt lat="49.25566" lon="0.19957">
        <ele>54.93</ele>
        <time>2021-03-01T15:19:17Z</time>
      </trkpt>
      <trkpt lat="49.25564" lon="0.1996">
        <ele>54.93</ele>
        <time>2021-03-01T15:19:36Z</time>
      </trkpt>
      <trkpt lat="49.25563" lon="0.19958">
        <ele>54.93</ele>
        <time>2021-03-01T15:19:50Z</time>
      </trkpt>
      <trkpt lat="49.25563" lon="0.1996">
        <ele>54.93</ele>
        <time>2021-03-01T15:20:10Z</time>
      </trkpt>
      <trkpt lat="49.25566" lon="0.19958">
        <ele>54.93</ele>
        <time>2021-03-01T15:20:14Z</time>
      </trkpt>
      <trkpt lat="49.25569" lon="0.19956">
        <ele>54.93</ele>
        <time>2021-03-01T15:20:17Z</time>
      </trkpt>
      <trkpt lat="49.25571" lon="0.19954">
        <ele>54.93</ele>
        <time>2021-03-01T15:20:19Z</time>
      </trkpt>
      <trkpt lat="49.25574" lon="0.19954">
        <ele>54.93</ele>
        <time>2021-03-01T15:20:21Z</time>
      </trkpt>
      <trkpt lat="49.25588" lon="0.1995">
        <ele>56.37</ele>
        <time>2021-03-01T15:20:37Z</time>
      </trkpt>
      <trkpt lat="49.25593" lon="0.1995">
        <ele>56.37</ele>
        <time>2021-03-01T15:20:40Z</time>
      </trkpt>
      <trkpt lat="49.25612" lon="0.19946">
        <ele>55.89</ele>
        <time>2021-03-01T15:20:54Z</time>
      </trkpt>
      <trkpt lat="49.25623" lon="0.1994">
        <ele>54.45</ele>
        <time>2021-03-01T15:21:03Z</time>
      </trkpt>
      <trkpt lat="49.25637" lon="0.1994">
        <ele>52.05</ele>
        <time>2021-03-01T15:21:17Z</time>
      </trkpt>
      <trkpt lat="49.25648" lon="0.1995">
        <ele>51.09</ele>
        <time>2021-03-01T15:21:32Z</time>
      </trkpt>
      <trkpt lat="49.25649" lon="0.19952">
        <ele>51.09</ele>
        <time>2021-03-01T15:21:34Z</time>
      </trkpt>
      <trkpt lat="49.25652" lon="0.19958">
        <ele>50.61</ele>
        <time>2021-03-01T15:21:37Z</time>
      </trkpt>
      <trkpt lat="49.25652" lon="0.19961">
        <ele>50.13</ele>
        <time>2021-03-01T15:21:39Z</time>
      </trkpt>
      <trkpt lat="49.25658" lon="0.19987">
        <ele>49.16</ele>
        <time>2021-03-01T15:21:56Z</time>
      </trkpt>
      <trkpt lat="49.25659" lon="0.19992">
        <ele>48.68</ele>
        <time>2021-03-01T15:21:59Z</time>
      </trkpt>
      <trkpt lat="49.25659" lon="0.20012">
        <ele>47.72</ele>
        <time>2021-03-01T15:22:13Z</time>
      </trkpt>
      <trkpt lat="49.25657" lon="0.20005">
        <ele>47.72</ele>
        <time>2021-03-01T15:22:26Z</time>
      </trkpt>
      <trkpt lat="49.25656" lon="0.20003">
        <ele>47.72</ele>
        <time>2021-03-01T15:22:45Z</time>
      </trkpt>
      <trkpt lat="49.25659" lon="0.20009">
        <ele>47.72</ele>
        <time>2021-03-01T15:22:50Z</time>
      </trkpt>
      <trkpt lat="49.25661" lon="0.20027">
        <ele>45.8</ele>
        <time>2021-03-01T15:22:59Z</time>
      </trkpt>
      <trkpt lat="49.25662" lon="0.20052">
        <ele>46.76</ele>
        <time>2021-03-01T15:23:10Z</time>
      </trkpt>
      <trkpt lat="49.25664" lon="0.20089">
        <ele>45.8</ele>
        <time>2021-03-01T15:23:30Z</time>
      </trkpt>
      <trkpt lat="49.25666" lon="0.20123">
        <ele>44.84</ele>
        <time>2021-03-01T15:23:47Z</time>
      </trkpt>
      <trkpt lat="49.25686" lon="0.20135">
        <ele>44.84</ele>
        <time>2021-03-01T15:24:05Z</time>
      </trkpt>
      <trkpt lat="49.25711" lon="0.20149">
        <ele>47.24</ele>
        <time>2021-03-01T15:24:26Z</time>
      </trkpt>
      <trkpt lat="49.25735" lon="0.20157">
        <ele>48.68</ele>
        <time>2021-03-01T15:24:45Z</time>
      </trkpt>
      <trkpt lat="49.25757" lon="0.20165">
        <ele>50.61</ele>
        <time>2021-03-01T15:25:06Z</time>
      </trkpt>
      <trkpt lat="49.25783" lon="0.20174">
        <ele>53.49</ele>
        <time>2021-03-01T15:25:29Z</time>
      </trkpt>
      <trkpt lat="49.25803" lon="0.20177">
        <ele>55.41</ele>
        <time>2021-03-01T15:25:46Z</time>
      </trkpt>
      <trkpt lat="49.25813" lon="0.20181">
        <ele>56.37</ele>
        <time>2021-03-01T15:25:56Z</time>
      </trkpt>
      <trkpt lat="49.25828" lon="0.2017">
        <ele>58.3</ele>
        <time>2021-03-01T15:26:13Z</time>
      </trkpt>
      <trkpt lat="49.25828" lon="0.20168">
        <ele>58.3</ele>
        <time>2021-03-01T15:26:14Z</time>
      </trkpt>
      <trkpt lat="49.25841" lon="0.20141">
        <ele>60.22</ele>
        <time>2021-03-01T15:26:32Z</time>
      </trkpt>
      <trkpt lat="49.25843" lon="0.20139">
        <ele>60.7</ele>
        <time>2021-03-01T15:26:34Z</time>
      </trkpt>
      <trkpt lat="49.25848" lon="0.20133">
        <ele>60.7</ele>
        <time>2021-03-01T15:26:39Z</time>
      </trkpt>
      <trkpt lat="49.25861" lon="0.20118">
        <ele>61.18</ele>
        <time>2021-03-01T15:26:57Z</time>
      </trkpt>
      <trkpt lat="49.25865" lon="0.20118">
        <ele>61.66</ele>
        <time>2021-03-01T15:27:20Z</time>
      </trkpt>
      <trkpt lat="49.25869" lon="0.20129">
        <ele>61.66</ele>
        <time>2021-03-01T15:27:35Z</time>
      </trkpt>
      <trkpt lat="49.25871" lon="0.20132">
        <ele>61.66</ele>
        <time>2021-03-01T15:27:50Z</time>
      </trkpt>
      <trkpt lat="49.25877" lon="0.20155">
        <ele>61.66</ele>
        <time>2021-03-01T15:28:02Z</time>
      </trkpt>
      <trkpt lat="49.25902" lon="0.20153">
        <ele>61.66</ele>
        <time>2021-03-01T15:28:23Z</time>
      </trkpt>
      <trkpt lat="49.25923" lon="0.20152">
        <ele>60.22</ele>
        <time>2021-03-01T15:28:39Z</time>
      </trkpt>
      <trkpt lat="49.25941" lon="0.20151">
        <ele>59.26</ele>
        <time>2021-03-01T15:28:55Z</time>
      </trkpt>
      <trkpt lat="49.25948" lon="0.20152">
        <ele>58.3</ele>
        <time>2021-03-01T15:29:04Z</time>
      </trkpt>
      <trkpt lat="49.25968" lon="0.20153">
        <ele>57.82</ele>
        <time>2021-03-01T15:29:20Z</time>
      </trkpt>
      <trkpt lat="49.25989" lon="0.20152">
        <ele>57.82</ele>
        <time>2021-03-01T15:29:37Z</time>
      </trkpt>
      <trkpt lat="49.26011" lon="0.20149">
        <ele>57.82</ele>
        <time>2021-03-01T15:29:57Z</time>
      </trkpt>
      <trkpt lat="49.26031" lon="0.20142">
        <ele>57.82</ele>
        <time>2021-03-01T15:30:14Z</time>
      </trkpt>
      <trkpt lat="49.26051" lon="0.20137">
        <ele>59.26</ele>
        <time>2021-03-01T15:30:31Z</time>
      </trkpt>
      <trkpt lat="49.26072" lon="0.20133">
        <ele>59.74</ele>
        <time>2021-03-01T15:30:49Z</time>
      </trkpt>
      <trkpt lat="49.26095" lon="0.2013">
        <ele>60.7</ele>
        <time>2021-03-01T15:31:09Z</time>
      </trkpt>
      <trkpt lat="49.26113" lon="0.20128">
        <ele>60.7</ele>
        <time>2021-03-01T15:31:25Z</time>
      </trkpt>
      <trkpt lat="49.26135" lon="0.20126">
        <ele>61.18</ele>
        <time>2021-03-01T15:31:45Z</time>
      </trkpt>
      <trkpt lat="49.26156" lon="0.20126">
        <ele>61.66</ele>
        <time>2021-03-01T15:32:02Z</time>
      </trkpt>
      <trkpt lat="49.26177" lon="0.20125">
        <ele>62.14</ele>
        <time>2021-03-01T15:32:20Z</time>
      </trkpt>
      <trkpt lat="49.26197" lon="0.20124">
        <ele>62.14</ele>
        <time>2021-03-01T15:32:37Z</time>
      </trkpt>
      <trkpt lat="49.26221" lon="0.20125">
        <ele>62.14</ele>
        <time>2021-03-01T15:32:57Z</time>
      </trkpt>
      <trkpt lat="49.26247" lon="0.20125">
        <ele>62.14</ele>
        <time>2021-03-01T15:33:19Z</time>
      </trkpt>
      <trkpt lat="49.26266" lon="0.20124">
        <ele>62.14</ele>
        <time>2021-03-01T15:33:36Z</time>
      </trkpt>
      <trkpt lat="49.26285" lon="0.2012">
        <ele>62.14</ele>
        <time>2021-03-01T15:33:52Z</time>
      </trkpt>
      <trkpt lat="49.26309" lon="0.20114">
        <ele>62.14</ele>
        <time>2021-03-01T15:34:11Z</time>
      </trkpt>
      <trkpt lat="49.26331" lon="0.20111">
        <ele>62.14</ele>
        <time>2021-03-01T15:34:29Z</time>
      </trkpt>
      <trkpt lat="49.26332" lon="0.20112">
        <ele>62.14</ele>
        <time>2021-03-01T15:34:30Z</time>
      </trkpt>
      <trkpt lat="49.26343" lon="0.20148">
        <ele>60.7</ele>
        <time>2021-03-01T15:34:50Z</time>
      </trkpt>
      <trkpt lat="49.26353" lon="0.20184">
        <ele>59.26</ele>
        <time>2021-03-01T15:35:11Z</time>
      </trkpt>
      <trkpt lat="49.26361" lon="0.20221">
        <ele>56.37</ele>
        <time>2021-03-01T15:35:34Z</time>
      </trkpt>
      <trkpt lat="49.26363" lon="0.20254">
        <ele>53.49</ele>
        <time>2021-03-01T15:35:54Z</time>
      </trkpt>
      <trkpt lat="49.26361" lon="0.20286">
        <ele>50.61</ele>
        <time>2021-03-01T15:36:13Z</time>
      </trkpt>
      <trkpt lat="49.26357" lon="0.20319">
        <ele>48.68</ele>
        <time>2021-03-01T15:36:32Z</time>
      </trkpt>
      <trkpt lat="49.26357" lon="0.20351">
        <ele>47.72</ele>
        <time>2021-03-01T15:36:49Z</time>
      </trkpt>
      <trkpt lat="49.26349" lon="0.20387">
        <ele>46.28</ele>
        <time>2021-03-01T15:37:09Z</time>
      </trkpt>
      <trkpt lat="49.26336" lon="0.20391">
        <ele>45.8</ele>
        <time>2021-03-01T15:37:21Z</time>
      </trkpt>
      <trkpt lat="49.26335" lon="0.20394">
        <ele>45.8</ele>
        <time>2021-03-01T15:37:23Z</time>
      </trkpt>
      <trkpt lat="49.26333" lon="0.20436">
        <ele>45.8</ele>
        <time>2021-03-01T15:37:44Z</time>
      </trkpt>
      <trkpt lat="49.26338" lon="0.20476">
        <ele>47.24</ele>
        <time>2021-03-01T15:38:05Z</time>
      </trkpt>
      <trkpt lat="49.26361" lon="0.20502">
        <ele>47.24</ele>
        <time>2021-03-01T15:38:28Z</time>
      </trkpt>
      <trkpt lat="49.26384" lon="0.20526">
        <ele>45.32</ele>
        <time>2021-03-01T15:38:50Z</time>
      </trkpt>
      <trkpt lat="49.26405" lon="0.20547">
        <ele>43.88</ele>
        <time>2021-03-01T15:39:10Z</time>
      </trkpt>
      <trkpt lat="49.26428" lon="0.20568">
        <ele>42.92</ele>
        <time>2021-03-01T15:39:31Z</time>
      </trkpt>
      <trkpt lat="49.26454" lon="0.20579">
        <ele>41.47</ele>
        <time>2021-03-01T15:39:53Z</time>
      </trkpt>
      <trkpt lat="49.26476" lon="0.20585">
        <ele>40.51</ele>
        <time>2021-03-01T15:40:12Z</time>
      </trkpt>
      <trkpt lat="49.26499" lon="0.20592">
        <ele>39.55</ele>
        <time>2021-03-01T15:40:32Z</time>
      </trkpt>
      <trkpt lat="49.2651" lon="0.20595">
        <ele>39.07</ele>
        <time>2021-03-01T15:40:41Z</time>
      </trkpt>
      <trkpt lat="49.26535" lon="0.20607">
        <ele>38.11</ele>
        <time>2021-03-01T15:41:02Z</time>
      </trkpt>
      <trkpt lat="49.2656" lon="0.20616">
        <ele>37.15</ele>
        <time>2021-03-01T15:41:23Z</time>
      </trkpt>
      <trkpt lat="49.26585" lon="0.20623">
        <ele>35.71</ele>
        <time>2021-03-01T15:41:45Z</time>
      </trkpt>
      <trkpt lat="49.26605" lon="0.20633">
        <ele>34.74</ele>
        <time>2021-03-01T15:42:03Z</time>
      </trkpt>
      <trkpt lat="49.26621" lon="0.20646">
        <ele>33.3</ele>
        <time>2021-03-01T15:42:20Z</time>
      </trkpt>
      <trkpt lat="49.26633" lon="0.20655">
        <ele>32.34</ele>
        <time>2021-03-01T15:42:34Z</time>
      </trkpt>
      <trkpt lat="49.26649" lon="0.20666">
        <ele>31.86</ele>
        <time>2021-03-01T15:42:49Z</time>
      </trkpt>
      <trkpt lat="49.26664" lon="0.20676">
        <ele>29.94</ele>
        <time>2021-03-01T15:43:04Z</time>
      </trkpt>
      <trkpt lat="49.26683" lon="0.20688">
        <ele>28.5</ele>
        <time>2021-03-01T15:43:19Z</time>
      </trkpt>
      <trkpt lat="49.26693" lon="0.20692">
        <ele>28.02</ele>
        <time>2021-03-01T15:43:28Z</time>
      </trkpt>
      <trkpt lat="49.26701" lon="0.20688">
        <ele>27.53</ele>
        <time>2021-03-01T15:43:36Z</time>
      </trkpt>
      <trkpt lat="49.26708" lon="0.20659">
        <ele>27.05</ele>
        <time>2021-03-01T15:43:55Z</time>
      </trkpt>
      <trkpt lat="49.26706" lon="0.20635">
        <ele>27.05</ele>
        <time>2021-03-01T15:44:10Z</time>
      </trkpt>
      <trkpt lat="49.26707" lon="0.20609">
        <ele>27.05</ele>
        <time>2021-03-01T15:44:25Z</time>
      </trkpt>
      <trkpt lat="49.26707" lon="0.206">
        <ele>28.02</ele>
        <time>2021-03-01T15:44:31Z</time>
      </trkpt>
      <trkpt lat="49.26707" lon="0.20595">
        <ele>28.02</ele>
        <time>2021-03-01T15:44:34Z</time>
      </trkpt>
      <trkpt lat="49.26707" lon="0.20568">
        <ele>29.46</ele>
        <time>2021-03-01T15:44:51Z</time>
      </trkpt>
      <trkpt lat="49.2671" lon="0.20542">
        <ele>29.94</ele>
        <time>2021-03-01T15:45:07Z</time>
      </trkpt>
      <trkpt lat="49.26714" lon="0.20516">
        <ele>28.5</ele>
        <time>2021-03-01T15:45:23Z</time>
      </trkpt>
      <trkpt lat="49.26714" lon="0.20503">
        <ele>27.53</ele>
        <time>2021-03-01T15:45:31Z</time>
      </trkpt>
      <trkpt lat="49.26713" lon="0.20478">
        <ele>25.13</ele>
        <time>2021-03-01T15:45:47Z</time>
      </trkpt>
      <trkpt lat="49.26713" lon="0.20466">
        <ele>22.73</ele>
        <time>2021-03-01T15:45:56Z</time>
      </trkpt>
      <trkpt lat="49.26714" lon="0.20458">
        <ele>22.25</ele>
        <time>2021-03-01T15:46:00Z</time>
      </trkpt>
      <trkpt lat="49.26732" lon="0.20463">
        <ele>19.36</ele>
        <time>2021-03-01T15:46:17Z</time>
      </trkpt>
      <trkpt lat="49.26736" lon="0.20465">
        <ele>18.88</ele>
        <time>2021-03-01T15:46:27Z</time>
      </trkpt>
      <trkpt lat="49.26756" lon="0.20488">
        <ele>16.48</ele>
        <time>2021-03-01T15:46:48Z</time>
      </trkpt>
      <trkpt lat="49.26776" lon="0.20491">
        <ele>15.52</ele>
        <time>2021-03-01T15:47:05Z</time>
      </trkpt>
      <trkpt lat="49.26781" lon="0.20474">
        <ele>15.04</ele>
        <time>2021-03-01T15:47:19Z</time>
      </trkpt>
      <trkpt lat="49.26785" lon="0.20439">
        <ele>15.04</ele>
        <time>2021-03-01T15:47:38Z</time>
      </trkpt>
      <trkpt lat="49.26785" lon="0.20432">
        <ele>15.04</ele>
        <time>2021-03-01T15:47:42Z</time>
      </trkpt>
      <trkpt lat="49.26788" lon="0.204">
        <ele>16</ele>
        <time>2021-03-01T15:48:00Z</time>
      </trkpt>
      <trkpt lat="49.26789" lon="0.2037">
        <ele>16.48</ele>
        <time>2021-03-01T15:48:16Z</time>
      </trkpt>
      <trkpt lat="49.26788" lon="0.20339">
        <ele>16.96</ele>
        <time>2021-03-01T15:48:32Z</time>
      </trkpt>
      <trkpt lat="49.26786" lon="0.20323">
        <ele>17.44</ele>
        <time>2021-03-01T15:48:44Z</time>
      </trkpt>
      <trkpt lat="49.26784" lon="0.20308">
        <ele>17.44</ele>
        <time>2021-03-01T15:48:58Z</time>
      </trkpt>
      <trkpt lat="49.26783" lon="0.2028">
        <ele>17.44</ele>
        <time>2021-03-01T15:49:13Z</time>
      </trkpt>
      <trkpt lat="49.26782" lon="0.20249">
        <ele>17.92</ele>
        <time>2021-03-01T15:49:29Z</time>
      </trkpt>
      <trkpt lat="49.26784" lon="0.20209">
        <ele>17.92</ele>
        <time>2021-03-01T15:49:49Z</time>
      </trkpt>
      <trkpt lat="49.26787" lon="0.20186">
        <ele>17.92</ele>
        <time>2021-03-01T15:50:03Z</time>
      </trkpt>
      <trkpt lat="49.26788" lon="0.20173">
        <ele>17.92</ele>
        <time>2021-03-01T15:50:12Z</time>
      </trkpt>
      <trkpt lat="49.26795" lon="0.20167">
        <ele>16.48</ele>
        <time>2021-03-01T15:50:20Z</time>
      </trkpt>
      <trkpt lat="49.26798" lon="0.20161">
        <ele>16</ele>
        <time>2021-03-01T15:50:25Z</time>
      </trkpt>
      <trkpt lat="49.2682" lon="0.20134">
        <ele>15.04</ele>
        <time>2021-03-01T15:50:43Z</time>
      </trkpt>
      <trkpt lat="49.26834" lon="0.20125">
        <ele>14.08</ele>
        <time>2021-03-01T15:50:54Z</time>
      </trkpt>
      <trkpt lat="49.26842" lon="0.20125">
        <ele>13.6</ele>
        <time>2021-03-01T15:50:59Z</time>
      </trkpt>
      <trkpt lat="49.26871" lon="0.20153">
        <ele>12.15</ele>
        <time>2021-03-01T15:51:25Z</time>
      </trkpt>
      <trkpt lat="49.26895" lon="0.20184">
        <ele>10.71</ele>
        <time>2021-03-01T15:51:49Z</time>
      </trkpt>
      <trkpt lat="49.26899" lon="0.20191">
        <ele>10.23</ele>
        <time>2021-03-01T15:51:59Z</time>
      </trkpt>
      <trkpt lat="49.26922" lon="0.2021">
        <ele>10.23</ele>
        <time>2021-03-01T15:52:20Z</time>
      </trkpt>
      <trkpt lat="49.26942" lon="0.20229">
        <ele>9.75</ele>
        <time>2021-03-01T15:52:39Z</time>
      </trkpt>
      <trkpt lat="49.26969" lon="0.20243">
        <ele>9.75</ele>
        <time>2021-03-01T15:53:01Z</time>
      </trkpt>
      <trkpt lat="49.2699" lon="0.20262">
        <ele>9.75</ele>
        <time>2021-03-01T15:53:21Z</time>
      </trkpt>
      <trkpt lat="49.26999" lon="0.20262">
        <ele>9.75</ele>
        <time>2021-03-01T15:53:29Z</time>
      </trkpt>
      <trkpt lat="49.27005" lon="0.20235">
        <ele>9.27</ele>
        <time>2021-03-01T15:53:46Z</time>
      </trkpt>
      <trkpt lat="49.27005" lon="0.20206">
        <ele>8.79</ele>
        <time>2021-03-01T15:54:02Z</time>
      </trkpt>
      <trkpt lat="49.27" lon="0.20166">
        <ele>8.79</ele>
        <time>2021-03-01T15:54:23Z</time>
      </trkpt>
      <trkpt lat="49.26997" lon="0.20128">
        <ele>8.31</ele>
        <time>2021-03-01T15:54:42Z</time>
      </trkpt>
      <trkpt lat="49.26997" lon="0.20091">
        <ele>8.31</ele>
        <time>2021-03-01T15:55:02Z</time>
      </trkpt>
      <trkpt lat="49.27001" lon="0.20075">
        <ele>8.31</ele>
        <time>2021-03-01T15:55:13Z</time>
      </trkpt>
      <trkpt lat="49.27015" lon="0.20048">
        <ele>7.83</ele>
        <time>2021-03-01T15:55:31Z</time>
      </trkpt>
      <trkpt lat="49.27024" lon="0.20041">
        <ele>7.83</ele>
        <time>2021-03-01T15:55:40Z</time>
      </trkpt>
      <trkpt lat="49.27042" lon="0.20031">
        <ele>7.83</ele>
        <time>2021-03-01T15:55:56Z</time>
      </trkpt>
      <trkpt lat="49.27058" lon="0.20026">
        <ele>7.83</ele>
        <time>2021-03-01T15:56:10Z</time>
      </trkpt>
      <trkpt lat="49.27068" lon="0.20023">
        <ele>7.83</ele>
        <time>2021-03-01T15:56:28Z</time>
      </trkpt>
      <trkpt lat="49.27073" lon="0.20019">
        <ele>7.83</ele>
        <time>2021-03-01T15:56:33Z</time>
      </trkpt>
      <trkpt lat="49.27076" lon="0.19995">
        <ele>7.83</ele>
        <time>2021-03-01T15:56:48Z</time>
      </trkpt>
      <trkpt lat="49.27075" lon="0.19977">
        <ele>7.83</ele>
        <time>2021-03-01T15:57:05Z</time>
      </trkpt>
      <trkpt lat="49.27075" lon="0.1997">
        <ele>7.83</ele>
        <time>2021-03-01T15:57:10Z</time>
      </trkpt>
      <trkpt lat="49.27075" lon="0.19934">
        <ele>7.83</ele>
        <time>2021-03-01T15:57:28Z</time>
      </trkpt>
      <trkpt lat="49.27075" lon="0.19901">
        <ele>7.83</ele>
        <time>2021-03-01T15:57:47Z</time>
      </trkpt>
      <trkpt lat="49.27076" lon="0.19869">
        <ele>7.83</ele>
        <time>2021-03-01T15:58:04Z</time>
      </trkpt>
      <trkpt lat="49.27078" lon="0.19853">
        <ele>7.83</ele>
        <time>2021-03-01T15:58:16Z</time>
      </trkpt>
      <trkpt lat="49.27086" lon="0.19827">
        <ele>8.79</ele>
        <time>2021-03-01T15:58:33Z</time>
      </trkpt>
      <trkpt lat="49.27093" lon="0.19798">
        <ele>8.79</ele>
        <time>2021-03-01T15:58:50Z</time>
      </trkpt>
      <trkpt lat="49.27103" lon="0.1975">
        <ele>8.79</ele>
        <time>2021-03-01T15:59:17Z</time>
      </trkpt>
      <trkpt lat="49.27111" lon="0.19729">
        <ele>8.79</ele>
        <time>2021-03-01T15:59:32Z</time>
      </trkpt>
      <trkpt lat="49.27123" lon="0.19702">
        <ele>8.79</ele>
        <time>2021-03-01T15:59:50Z</time>
      </trkpt>
      <trkpt lat="49.27132" lon="0.19684">
        <ele>8.79</ele>
        <time>2021-03-01T16:00:03Z</time>
      </trkpt>
      <trkpt lat="49.27144" lon="0.19654">
        <ele>8.79</ele>
        <time>2021-03-01T16:00:22Z</time>
      </trkpt>
      <trkpt lat="49.27157" lon="0.19629">
        <ele>8.79</ele>
        <time>2021-03-01T16:00:40Z</time>
      </trkpt>
      <trkpt lat="49.27175" lon="0.19599">
        <ele>8.79</ele>
        <time>2021-03-01T16:01:02Z</time>
      </trkpt>
      <trkpt lat="49.27187" lon="0.19572">
        <ele>8.79</ele>
        <time>2021-03-01T16:01:21Z</time>
      </trkpt>
      <trkpt lat="49.27201" lon="0.19549">
        <ele>8.79</ele>
        <time>2021-03-01T16:01:36Z</time>
      </trkpt>
      <trkpt lat="49.27216" lon="0.19521">
        <ele>8.79</ele>
        <time>2021-03-01T16:01:58Z</time>
      </trkpt>
      <trkpt lat="49.27232" lon="0.19494">
        <ele>8.79</ele>
        <time>2021-03-01T16:02:18Z</time>
      </trkpt>
      <trkpt lat="49.27251" lon="0.19455">
        <ele>8.79</ele>
        <time>2021-03-01T16:02:45Z</time>
      </trkpt>
      <trkpt lat="49.27267" lon="0.19426">
        <ele>8.79</ele>
        <time>2021-03-01T16:03:08Z</time>
      </trkpt>
      <trkpt lat="49.27285" lon="0.19401">
        <ele>8.79</ele>
        <time>2021-03-01T16:03:29Z</time>
      </trkpt>
      <trkpt lat="49.27309" lon="0.19366">
        <ele>8.79</ele>
        <time>2021-03-01T16:03:56Z</time>
      </trkpt>
      <trkpt lat="49.2733" lon="0.19338">
        <ele>8.79</ele>
        <time>2021-03-01T16:04:19Z</time>
      </trkpt>
      <trkpt lat="49.27352" lon="0.19308">
        <ele>8.79</ele>
        <time>2021-03-01T16:04:45Z</time>
      </trkpt>
      <trkpt lat="49.27374" lon="0.1928">
        <ele>8.79</ele>
        <time>2021-03-01T16:05:06Z</time>
      </trkpt>
      <trkpt lat="49.27397" lon="0.19251">
        <ele>8.79</ele>
        <time>2021-03-01T16:05:32Z</time>
      </trkpt>
      <trkpt lat="49.27411" lon="0.19231">
        <ele>8.79</ele>
        <time>2021-03-01T16:05:53Z</time>
      </trkpt>
      <trkpt lat="49.27415" lon="0.19214">
        <ele>9.75</ele>
        <time>2021-03-01T16:06:09Z</time>
      </trkpt>
      <trkpt lat="49.27428" lon="0.1918">
        <ele>10.23</ele>
        <time>2021-03-01T16:06:30Z</time>
      </trkpt>
      <trkpt lat="49.27447" lon="0.19153">
        <ele>10.23</ele>
        <time>2021-03-01T16:06:52Z</time>
      </trkpt>
      <trkpt lat="49.27471" lon="0.19127">
        <ele>10.23</ele>
        <time>2021-03-01T16:07:16Z</time>
      </trkpt>
      <trkpt lat="49.27474" lon="0.1912">
        <ele>10.23</ele>
        <time>2021-03-01T16:07:30Z</time>
      </trkpt>
      <trkpt lat="49.27476" lon="0.19111">
        <ele>10.23</ele>
        <time>2021-03-01T16:07:49Z</time>
      </trkpt>
      <trkpt lat="49.27496" lon="0.19098">
        <ele>10.71</ele>
        <time>2021-03-01T16:08:17Z</time>
      </trkpt>
      <trkpt lat="49.27524" lon="0.19058">
        <ele>11.19</ele>
        <time>2021-03-01T16:08:37Z</time>
      </trkpt>
      <trkpt lat="49.27533" lon="0.19041">
        <ele>12.15</ele>
        <time>2021-03-01T16:08:56Z</time>
      </trkpt>
      <trkpt lat="49.27542" lon="0.1903">
        <ele>12.63</ele>
        <time>2021-03-01T16:09:09Z</time>
      </trkpt>
      <trkpt lat="49.27549" lon="0.19025">
        <ele>13.12</ele>
        <time>2021-03-01T16:09:22Z</time>
      </trkpt>
      <trkpt lat="49.27564" lon="0.19004">
        <ele>14.08</ele>
        <time>2021-03-01T16:09:41Z</time>
      </trkpt>
      <trkpt lat="49.27586" lon="0.18979">
        <ele>14.56</ele>
        <time>2021-03-01T16:10:05Z</time>
      </trkpt>
      <trkpt lat="49.27607" lon="0.18951">
        <ele>15.52</ele>
        <time>2021-03-01T16:10:27Z</time>
      </trkpt>
      <trkpt lat="49.27626" lon="0.18928">
        <ele>16</ele>
        <time>2021-03-01T16:10:49Z</time>
      </trkpt>
      <trkpt lat="49.2764" lon="0.18901">
        <ele>16</ele>
        <time>2021-03-01T16:11:07Z</time>
      </trkpt>
      <trkpt lat="49.27656" lon="0.18888">
        <ele>16</ele>
        <time>2021-03-01T16:11:25Z</time>
      </trkpt>
      <trkpt lat="49.27659" lon="0.1889">
        <ele>14.56</ele>
        <time>2021-03-01T16:11:40Z</time>
      </trkpt>
      <trkpt lat="49.27667" lon="0.18868">
        <ele>14.08</ele>
        <time>2021-03-01T16:11:56Z</time>
      </trkpt>
      <trkpt lat="49.27679" lon="0.18819">
        <ele>13.12</ele>
        <time>2021-03-01T16:12:23Z</time>
      </trkpt>
      <trkpt lat="49.27694" lon="0.18769">
        <ele>12.15</ele>
        <time>2021-03-01T16:12:54Z</time>
      </trkpt>
      <trkpt lat="49.27704" lon="0.18734">
        <ele>11.19</ele>
        <time>2021-03-01T16:13:15Z</time>
      </trkpt>
      <trkpt lat="49.27723" lon="0.18685">
        <ele>10.23</ele>
        <time>2021-03-01T16:13:43Z</time>
      </trkpt>
      <trkpt lat="49.27752" lon="0.18668">
        <ele>10.23</ele>
        <time>2021-03-01T16:14:09Z</time>
      </trkpt>
      <trkpt lat="49.27772" lon="0.18648">
        <ele>10.23</ele>
        <time>2021-03-01T16:14:32Z</time>
      </trkpt>
      <trkpt lat="49.27796" lon="0.18613">
        <ele>9.75</ele>
        <time>2021-03-01T16:14:58Z</time>
      </trkpt>
      <trkpt lat="49.2781" lon="0.18582">
        <ele>9.75</ele>
        <time>2021-03-01T16:15:22Z</time>
      </trkpt>
      <trkpt lat="49.27828" lon="0.18546">
        <ele>9.27</ele>
        <time>2021-03-01T16:15:46Z</time>
      </trkpt>
      <trkpt lat="49.27829" lon="0.18545">
        <ele>10.71</ele>
        <time>2021-03-01T16:15:48Z</time>
      </trkpt>
      <trkpt lat="49.2784" lon="0.18518">
        <ele>9.75</ele>
        <time>2021-03-01T16:16:07Z</time>
      </trkpt>
      <trkpt lat="49.27842" lon="0.18495">
        <ele>9.27</ele>
        <time>2021-03-01T16:16:25Z</time>
      </trkpt>
      <trkpt lat="49.27843" lon="0.18455">
        <ele>9.27</ele>
        <time>2021-03-01T16:16:46Z</time>
      </trkpt>
      <trkpt lat="49.27848" lon="0.18416">
        <ele>9.27</ele>
        <time>2021-03-01T16:17:08Z</time>
      </trkpt>
      <trkpt lat="49.27853" lon="0.18396">
        <ele>9.27</ele>
        <time>2021-03-01T16:17:29Z</time>
      </trkpt>
      <trkpt lat="49.27869" lon="0.18379">
        <ele>10.23</ele>
        <time>2021-03-01T16:17:45Z</time>
      </trkpt>
      <trkpt lat="49.27893" lon="0.18361">
        <ele>11.67</ele>
        <time>2021-03-01T16:18:08Z</time>
      </trkpt>
      <trkpt lat="49.27889" lon="0.18346">
        <ele>13.6</ele>
        <time>2021-03-01T16:18:22Z</time>
      </trkpt>
      <trkpt lat="49.27858" lon="0.18326">
        <ele>14.56</ele>
        <time>2021-03-01T16:18:49Z</time>
      </trkpt>
      <trkpt lat="49.27841" lon="0.18305">
        <ele>16</ele>
        <time>2021-03-01T16:19:12Z</time>
      </trkpt>
      <trkpt lat="49.27828" lon="0.18274">
        <ele>18.4</ele>
        <time>2021-03-01T16:19:32Z</time>
      </trkpt>
      <trkpt lat="49.27819" lon="0.18229">
        <ele>20.32</ele>
        <time>2021-03-01T16:19:58Z</time>
      </trkpt>
      <trkpt lat="49.27812" lon="0.18185">
        <ele>22.25</ele>
        <time>2021-03-01T16:20:22Z</time>
      </trkpt>
      <trkpt lat="49.27807" lon="0.18142">
        <ele>23.21</ele>
        <time>2021-03-01T16:20:45Z</time>
      </trkpt>
      <trkpt lat="49.2781" lon="0.18103">
        <ele>24.65</ele>
        <time>2021-03-01T16:21:06Z</time>
      </trkpt>
      <trkpt lat="49.27814" lon="0.18082">
        <ele>25.61</ele>
        <time>2021-03-01T16:21:20Z</time>
      </trkpt>
      <trkpt lat="49.27817" lon="0.18038">
        <ele>26.09</ele>
        <time>2021-03-01T16:21:43Z</time>
      </trkpt>
      <trkpt lat="49.27821" lon="0.18003">
        <ele>27.05</ele>
        <time>2021-03-01T16:22:03Z</time>
      </trkpt>
      <trkpt lat="49.27826" lon="0.17961">
        <ele>28.02</ele>
        <time>2021-03-01T16:22:26Z</time>
      </trkpt>
      <trkpt lat="49.27825" lon="0.17932">
        <ele>28.98</ele>
        <time>2021-03-01T16:22:41Z</time>
      </trkpt>
      <trkpt lat="49.27827" lon="0.17928">
        <ele>29.46</ele>
        <time>2021-03-01T16:22:44Z</time>
      </trkpt>
      <trkpt lat="49.27849" lon="0.17921">
        <ele>29.46</ele>
        <time>2021-03-01T16:23:04Z</time>
      </trkpt>
      <trkpt lat="49.27882" lon="0.17928">
        <ele>29.46</ele>
        <time>2021-03-01T16:23:27Z</time>
      </trkpt>
      <trkpt lat="49.27906" lon="0.17932">
        <ele>29.94</ele>
        <time>2021-03-01T16:23:49Z</time>
      </trkpt>
      <trkpt lat="49.27932" lon="0.17936">
        <ele>29.94</ele>
        <time>2021-03-01T16:24:10Z</time>
      </trkpt>
      <trkpt lat="49.27964" lon="0.17943">
        <ele>30.42</ele>
        <time>2021-03-01T16:24:37Z</time>
      </trkpt>
      <trkpt lat="49.27992" lon="0.17948">
        <ele>30.42</ele>
        <time>2021-03-01T16:25:01Z</time>
      </trkpt>
      <trkpt lat="49.28017" lon="0.17936">
        <ele>31.38</ele>
        <time>2021-03-01T16:25:23Z</time>
      </trkpt>
      <trkpt lat="49.28021" lon="0.17886">
        <ele>33.3</ele>
        <time>2021-03-01T16:25:49Z</time>
      </trkpt>
      <trkpt lat="49.28027" lon="0.17847">
        <ele>34.26</ele>
        <time>2021-03-01T16:26:12Z</time>
      </trkpt>
      <trkpt lat="49.28033" lon="0.17842">
        <ele>34.26</ele>
        <time>2021-03-01T16:26:31Z</time>
      </trkpt>
      <trkpt lat="49.28036" lon="0.17842">
        <ele>34.74</ele>
        <time>2021-03-01T16:26:53Z</time>
      </trkpt>
      <trkpt lat="49.28035" lon="0.17838">
        <ele>34.74</ele>
        <time>2021-03-01T16:27:25Z</time>
      </trkpt>
      <trkpt lat="49.28038" lon="0.17836">
        <ele>33.78</ele>
        <time>2021-03-01T16:27:32Z</time>
      </trkpt>
      <trkpt lat="49.28038" lon="0.17833">
        <ele>32.82</ele>
        <time>2021-03-01T16:27:50Z</time>
      </trkpt>
      <trkpt lat="49.2804" lon="0.17824">
        <ele>32.82</ele>
        <time>2021-03-01T16:28:07Z</time>
      </trkpt>
      <trkpt lat="49.28047" lon="0.17847">
        <ele>37.15</ele>
        <time>2021-03-01T16:53:26Z</time>
      </trkpt>
      <trkpt lat="49.28046" lon="0.17846">
        <ele>37.15</ele>
        <time>2021-03-01T16:53:35Z</time>
      </trkpt>
    </trkseg>
  </trk>
</gpx>